<?xml version="1.0" encoding="UTF-8" standalone="no" ?>
<gpx xmlns="http://www.topografix.com/GPX/1/1" xmlns:xsi="http://www.w3.org/2001/XMLSchema-instance" xsi:schemaLocation="http://www.topografix.com/GPX/1/1 http://www.topografix.com/GPX/1/1/gpx.xsd" version="1.1" creator="VisuGPX - https://www.visugpx.com">
  <metadata>
    <name>83-CD-Bormes-les-Mimosas</name>
    <desc><![CDATA[83-CD-Bormes-les-Mimosas : vallon de la Femme Morte
Dimanche 1 avril 2012]]></desc>
  </metadata>
  <trk>
    <name><![CDATA[2012-04-01-bormes les mimosas]]></name>
    <trkseg>
      <trkpt lat="43.17041" lon="6.33224">
        <ele>200.248764</ele>
        <time>2012-04-01T08:20:00Z</time>
      </trkpt>
      <trkpt lat="43.17035" lon="6.33232">
        <ele>204.313049</ele>
        <time>2012-04-01T08:21:04Z</time>
      </trkpt>
      <trkpt lat="43.17034" lon="6.33233">
        <ele>204.03067</ele>
        <time>2012-04-01T08:21:05Z</time>
      </trkpt>
      <trkpt lat="43.17028" lon="6.33254">
        <ele>203.7</ele>
        <time>2012-04-01T08:21:22Z</time>
      </trkpt>
      <trkpt lat="43.17024" lon="6.33265">
        <ele>204</ele>
        <time>2012-04-01T08:21:34Z</time>
      </trkpt>
      <trkpt lat="43.17021" lon="6.33275">
        <ele>204.6</ele>
        <time>2012-04-01T08:21:47Z</time>
      </trkpt>
      <trkpt lat="43.17013" lon="6.33279">
        <ele>205.6</ele>
        <time>2012-04-01T08:22:00Z</time>
      </trkpt>
      <trkpt lat="43.17006" lon="6.33286">
        <ele>206.6</ele>
        <time>2012-04-01T08:22:13Z</time>
      </trkpt>
      <trkpt lat="43.17006" lon="6.33286">
        <ele>206.3</ele>
        <time>2012-04-01T08:22:14Z</time>
      </trkpt>
      <trkpt lat="43.16997" lon="6.33306">
        <ele>211.3</ele>
        <time>2012-04-01T08:22:54Z</time>
      </trkpt>
      <trkpt lat="43.16991" lon="6.33315">
        <ele>212.8</ele>
        <time>2012-04-01T08:23:13Z</time>
      </trkpt>
      <trkpt lat="43.16983" lon="6.33321">
        <ele>213.8</ele>
        <time>2012-04-01T08:23:31Z</time>
      </trkpt>
      <trkpt lat="43.16983" lon="6.33321">
        <ele>213.8</ele>
        <time>2012-04-01T08:23:32Z</time>
      </trkpt>
      <trkpt lat="43.16973" lon="6.3334">
        <ele>218.4</ele>
        <time>2012-04-01T08:24:09Z</time>
      </trkpt>
      <trkpt lat="43.16966" lon="6.33347">
        <ele>220.8</ele>
        <time>2012-04-01T08:24:30Z</time>
      </trkpt>
      <trkpt lat="43.16957" lon="6.3335">
        <ele>221.7</ele>
        <time>2012-04-01T08:24:49Z</time>
      </trkpt>
      <trkpt lat="43.16957" lon="6.3335">
        <ele>221.8</ele>
        <time>2012-04-01T08:24:50Z</time>
      </trkpt>
      <trkpt lat="43.1694" lon="6.33354">
        <ele>223.8</ele>
        <time>2012-04-01T08:25:19Z</time>
      </trkpt>
      <trkpt lat="43.16933" lon="6.33361">
        <ele>225.1</ele>
        <time>2012-04-01T08:25:36Z</time>
      </trkpt>
      <trkpt lat="43.1693" lon="6.33372">
        <ele>227.1</ele>
        <time>2012-04-01T08:25:51Z</time>
      </trkpt>
      <trkpt lat="43.1693" lon="6.33373">
        <ele>227.6</ele>
        <time>2012-04-01T08:25:52Z</time>
      </trkpt>
      <trkpt lat="43.16923" lon="6.33393">
        <ele>232.7</ele>
        <time>2012-04-01T08:26:22Z</time>
      </trkpt>
      <trkpt lat="43.16917" lon="6.33402">
        <ele>235</ele>
        <time>2012-04-01T08:26:41Z</time>
      </trkpt>
      <trkpt lat="43.16913" lon="6.33413">
        <ele>237.9</ele>
        <time>2012-04-01T08:27:02Z</time>
      </trkpt>
      <trkpt lat="43.16913" lon="6.33413">
        <ele>237.9</ele>
        <time>2012-04-01T08:27:03Z</time>
      </trkpt>
      <trkpt lat="43.16905" lon="6.33434">
        <ele>242.6</ele>
        <time>2012-04-01T08:27:37Z</time>
      </trkpt>
      <trkpt lat="43.16898" lon="6.33441">
        <ele>244</ele>
        <time>2012-04-01T08:29:06Z</time>
      </trkpt>
      <trkpt lat="43.16898" lon="6.33442">
        <ele>244</ele>
        <time>2012-04-01T08:29:07Z</time>
      </trkpt>
      <trkpt lat="43.169" lon="6.33454">
        <ele>247.6</ele>
        <time>2012-04-01T08:31:00Z</time>
      </trkpt>
      <trkpt lat="43.16898" lon="6.33478">
        <ele>252.3</ele>
        <time>2012-04-01T08:31:35Z</time>
      </trkpt>
      <trkpt lat="43.16895" lon="6.33489">
        <ele>255</ele>
        <time>2012-04-01T08:31:55Z</time>
      </trkpt>
      <trkpt lat="43.16892" lon="6.335">
        <ele>256.7</ele>
        <time>2012-04-01T08:32:17Z</time>
      </trkpt>
      <trkpt lat="43.16892" lon="6.33501">
        <ele>256.9</ele>
        <time>2012-04-01T08:32:18Z</time>
      </trkpt>
      <trkpt lat="43.16889" lon="6.33524">
        <ele>261.2</ele>
        <time>2012-04-01T08:33:00Z</time>
      </trkpt>
      <trkpt lat="43.16889" lon="6.33536">
        <ele>263.5</ele>
        <time>2012-04-01T08:33:29Z</time>
      </trkpt>
      <trkpt lat="43.16889" lon="6.33536">
        <ele>263.6</ele>
        <time>2012-04-01T08:33:30Z</time>
      </trkpt>
      <trkpt lat="43.16883" lon="6.33558">
        <ele>269.3</ele>
        <time>2012-04-01T08:34:46Z</time>
      </trkpt>
      <trkpt lat="43.16883" lon="6.33559">
        <ele>269.6</ele>
        <time>2012-04-01T08:34:47Z</time>
      </trkpt>
      <trkpt lat="43.16876" lon="6.3358">
        <ele>273.1</ele>
        <time>2012-04-01T08:35:20Z</time>
      </trkpt>
      <trkpt lat="43.16874" lon="6.33592">
        <ele>275.1</ele>
        <time>2012-04-01T08:35:42Z</time>
      </trkpt>
      <trkpt lat="43.16871" lon="6.33604">
        <ele>279.1</ele>
        <time>2012-04-01T08:36:03Z</time>
      </trkpt>
      <trkpt lat="43.16871" lon="6.33604">
        <ele>279.1</ele>
        <time>2012-04-01T08:36:04Z</time>
      </trkpt>
      <trkpt lat="43.16868" lon="6.33627">
        <ele>285.1</ele>
        <time>2012-04-01T08:38:04Z</time>
      </trkpt>
      <trkpt lat="43.16868" lon="6.33628">
        <ele>285</ele>
        <time>2012-04-01T08:38:05Z</time>
      </trkpt>
      <trkpt lat="43.16864" lon="6.33651">
        <ele>293.4</ele>
        <time>2012-04-01T08:40:54Z</time>
      </trkpt>
      <trkpt lat="43.16864" lon="6.33651">
        <ele>293.6</ele>
        <time>2012-04-01T08:40:55Z</time>
      </trkpt>
      <trkpt lat="43.16858" lon="6.33673">
        <ele>299.5</ele>
        <time>2012-04-01T08:41:43Z</time>
      </trkpt>
      <trkpt lat="43.16856" lon="6.33685">
        <ele>302.9</ele>
        <time>2012-04-01T08:42:12Z</time>
      </trkpt>
      <trkpt lat="43.16856" lon="6.33685">
        <ele>303.1</ele>
        <time>2012-04-01T08:42:13Z</time>
      </trkpt>
      <trkpt lat="43.16851" lon="6.33708">
        <ele>310.6</ele>
        <time>2012-04-01T08:46:12Z</time>
      </trkpt>
      <trkpt lat="43.16851" lon="6.33708">
        <ele>310.6</ele>
        <time>2012-04-01T08:46:13Z</time>
      </trkpt>
      <trkpt lat="43.16842" lon="6.33729">
        <ele>316.3</ele>
        <time>2012-04-01T08:46:54Z</time>
      </trkpt>
      <trkpt lat="43.16839" lon="6.33741">
        <ele>318.1</ele>
        <time>2012-04-01T08:47:19Z</time>
      </trkpt>
      <trkpt lat="43.16839" lon="6.33741">
        <ele>318.2</ele>
        <time>2012-04-01T08:47:20Z</time>
      </trkpt>
      <trkpt lat="43.16833" lon="6.33763">
        <ele>324.3</ele>
        <time>2012-04-01T08:48:06Z</time>
      </trkpt>
      <trkpt lat="43.16832" lon="6.33775">
        <ele>327.5</ele>
        <time>2012-04-01T08:48:32Z</time>
      </trkpt>
      <trkpt lat="43.16832" lon="6.33776">
        <ele>327.3</ele>
        <time>2012-04-01T08:48:33Z</time>
      </trkpt>
      <trkpt lat="43.16822" lon="6.33795">
        <ele>333.5</ele>
        <time>2012-04-01T08:49:16Z</time>
      </trkpt>
      <trkpt lat="43.1682" lon="6.33807">
        <ele>335.3</ele>
        <time>2012-04-01T08:49:33Z</time>
      </trkpt>
      <trkpt lat="43.1682" lon="6.33807">
        <ele>335.5</ele>
        <time>2012-04-01T08:49:34Z</time>
      </trkpt>
      <trkpt lat="43.16814" lon="6.33829">
        <ele>339.1</ele>
        <time>2012-04-01T08:50:08Z</time>
      </trkpt>
      <trkpt lat="43.16813" lon="6.33841">
        <ele>340.9</ele>
        <time>2012-04-01T08:50:27Z</time>
      </trkpt>
      <trkpt lat="43.16813" lon="6.33853">
        <ele>342.8</ele>
        <time>2012-04-01T08:50:53Z</time>
      </trkpt>
      <trkpt lat="43.16813" lon="6.33854">
        <ele>342.9</ele>
        <time>2012-04-01T08:50:54Z</time>
      </trkpt>
      <trkpt lat="43.16803" lon="6.33873">
        <ele>346</ele>
        <time>2012-04-01T08:51:25Z</time>
      </trkpt>
      <trkpt lat="43.16798" lon="6.33883">
        <ele>347.9</ele>
        <time>2012-04-01T08:51:49Z</time>
      </trkpt>
      <trkpt lat="43.16793" lon="6.33893">
        <ele>349.8</ele>
        <time>2012-04-01T08:52:02Z</time>
      </trkpt>
      <trkpt lat="43.16793" lon="6.33894">
        <ele>349.8</ele>
        <time>2012-04-01T08:52:03Z</time>
      </trkpt>
      <trkpt lat="43.16786" lon="6.33915">
        <ele>353.9</ele>
        <time>2012-04-01T08:52:48Z</time>
      </trkpt>
      <trkpt lat="43.16782" lon="6.33926">
        <ele>356</ele>
        <time>2012-04-01T08:53:08Z</time>
      </trkpt>
      <trkpt lat="43.16782" lon="6.33927">
        <ele>356.3</ele>
        <time>2012-04-01T08:53:09Z</time>
      </trkpt>
      <trkpt lat="43.16777" lon="6.33937">
        <ele>357.4</ele>
        <time>2012-04-01T08:54:18Z</time>
      </trkpt>
      <trkpt lat="43.16773" lon="6.33947">
        <ele>357.3</ele>
        <time>2012-04-01T09:00:54Z</time>
      </trkpt>
      <trkpt lat="43.16763" lon="6.33965">
        <ele>361.2</ele>
        <time>2012-04-01T09:01:28Z</time>
      </trkpt>
      <trkpt lat="43.16758" lon="6.33975">
        <ele>364.8</ele>
        <time>2012-04-01T09:01:53Z</time>
      </trkpt>
      <trkpt lat="43.16754" lon="6.33986">
        <ele>366.2</ele>
        <time>2012-04-01T09:02:16Z</time>
      </trkpt>
      <trkpt lat="43.16754" lon="6.33986">
        <ele>366.6</ele>
        <time>2012-04-01T09:02:17Z</time>
      </trkpt>
      <trkpt lat="43.16744" lon="6.34005">
        <ele>369.9</ele>
        <time>2012-04-01T09:02:48Z</time>
      </trkpt>
      <trkpt lat="43.16739" lon="6.34014">
        <ele>371.8</ele>
        <time>2012-04-01T09:03:06Z</time>
      </trkpt>
      <trkpt lat="43.16737" lon="6.34026">
        <ele>372.1</ele>
        <time>2012-04-01T09:03:22Z</time>
      </trkpt>
      <trkpt lat="43.16737" lon="6.34027">
        <ele>372</ele>
        <time>2012-04-01T09:03:23Z</time>
      </trkpt>
      <trkpt lat="43.16734" lon="6.3405">
        <ele>371.6</ele>
        <time>2012-04-01T09:03:58Z</time>
      </trkpt>
      <trkpt lat="43.16732" lon="6.34062">
        <ele>371.7</ele>
        <time>2012-04-01T09:08:54Z</time>
      </trkpt>
      <trkpt lat="43.16732" lon="6.34062">
        <ele>371.6</ele>
        <time>2012-04-01T09:08:55Z</time>
      </trkpt>
      <trkpt lat="43.1673" lon="6.34085">
        <ele>371.7</ele>
        <time>2012-04-01T09:09:34Z</time>
      </trkpt>
      <trkpt lat="43.1673" lon="6.34097">
        <ele>373</ele>
        <time>2012-04-01T09:09:47Z</time>
      </trkpt>
      <trkpt lat="43.16733" lon="6.34109">
        <ele>374.5</ele>
        <time>2012-04-01T09:10:03Z</time>
      </trkpt>
      <trkpt lat="43.16733" lon="6.34109">
        <ele>374.6</ele>
        <time>2012-04-01T09:10:04Z</time>
      </trkpt>
      <trkpt lat="43.16745" lon="6.34125">
        <ele>376.6</ele>
        <time>2012-04-01T09:10:43Z</time>
      </trkpt>
      <trkpt lat="43.16753" lon="6.34131">
        <ele>377.1</ele>
        <time>2012-04-01T09:10:56Z</time>
      </trkpt>
      <trkpt lat="43.16759" lon="6.34138">
        <ele>376.9</ele>
        <time>2012-04-01T09:11:07Z</time>
      </trkpt>
      <trkpt lat="43.1676" lon="6.34138">
        <ele>377.1</ele>
        <time>2012-04-01T09:11:08Z</time>
      </trkpt>
      <trkpt lat="43.16773" lon="6.34152">
        <ele>378.1</ele>
        <time>2012-04-01T09:11:27Z</time>
      </trkpt>
      <trkpt lat="43.1678" lon="6.34158">
        <ele>378.5</ele>
        <time>2012-04-01T09:11:37Z</time>
      </trkpt>
      <trkpt lat="43.16787" lon="6.34165">
        <ele>377.8</ele>
        <time>2012-04-01T09:11:46Z</time>
      </trkpt>
      <trkpt lat="43.16793" lon="6.34173">
        <ele>378.3</ele>
        <time>2012-04-01T09:11:55Z</time>
      </trkpt>
      <trkpt lat="43.16799" lon="6.34182">
        <ele>379.3</ele>
        <time>2012-04-01T09:12:03Z</time>
      </trkpt>
      <trkpt lat="43.16802" lon="6.34193">
        <ele>379.1</ele>
        <time>2012-04-01T09:12:12Z</time>
      </trkpt>
      <trkpt lat="43.16802" lon="6.34195">
        <ele>379.1</ele>
        <time>2012-04-01T09:12:13Z</time>
      </trkpt>
      <trkpt lat="43.16804" lon="6.34217">
        <ele>381.1</ele>
        <time>2012-04-01T09:12:36Z</time>
      </trkpt>
      <trkpt lat="43.16802" lon="6.34229">
        <ele>382.4</ele>
        <time>2012-04-01T09:12:54Z</time>
      </trkpt>
      <trkpt lat="43.16799" lon="6.3424">
        <ele>385.1</ele>
        <time>2012-04-01T09:13:12Z</time>
      </trkpt>
      <trkpt lat="43.16793" lon="6.34249">
        <ele>386.8</ele>
        <time>2012-04-01T09:13:26Z</time>
      </trkpt>
      <trkpt lat="43.16793" lon="6.34249">
        <ele>386.8</ele>
        <time>2012-04-01T09:13:27Z</time>
      </trkpt>
      <trkpt lat="43.16778" lon="6.34261">
        <ele>388.4</ele>
        <time>2012-04-01T09:14:08Z</time>
      </trkpt>
      <trkpt lat="43.16776" lon="6.34272">
        <ele>390.3</ele>
        <time>2012-04-01T09:14:26Z</time>
      </trkpt>
      <trkpt lat="43.16782" lon="6.34281">
        <ele>392.6</ele>
        <time>2012-04-01T09:14:46Z</time>
      </trkpt>
      <trkpt lat="43.16782" lon="6.34282">
        <ele>392.7</ele>
        <time>2012-04-01T09:14:47Z</time>
      </trkpt>
      <trkpt lat="43.16791" lon="6.34281">
        <ele>394</ele>
        <time>2012-04-01T09:16:10Z</time>
      </trkpt>
      <trkpt lat="43.16787" lon="6.34293">
        <ele>394.4</ele>
        <time>2012-04-01T09:17:59Z</time>
      </trkpt>
      <trkpt lat="43.16782" lon="6.34316">
        <ele>399.5</ele>
        <time>2012-04-01T09:18:44Z</time>
      </trkpt>
      <trkpt lat="43.16779" lon="6.34327">
        <ele>401.4</ele>
        <time>2012-04-01T09:19:05Z</time>
      </trkpt>
      <trkpt lat="43.16779" lon="6.34328">
        <ele>401.4</ele>
        <time>2012-04-01T09:19:06Z</time>
      </trkpt>
      <trkpt lat="43.16768" lon="6.34345">
        <ele>407.2</ele>
        <time>2012-04-01T09:19:51Z</time>
      </trkpt>
      <trkpt lat="43.16764" lon="6.34356">
        <ele>410.4</ele>
        <time>2012-04-01T09:20:17Z</time>
      </trkpt>
      <trkpt lat="43.16763" lon="6.34356">
        <ele>410.6</ele>
        <time>2012-04-01T09:20:18Z</time>
      </trkpt>
      <trkpt lat="43.16758" lon="6.34378">
        <ele>414.9</ele>
        <time>2012-04-01T09:20:56Z</time>
      </trkpt>
      <trkpt lat="43.16756" lon="6.34389">
        <ele>417</ele>
        <time>2012-04-01T09:21:13Z</time>
      </trkpt>
      <trkpt lat="43.16753" lon="6.34401">
        <ele>417.6</ele>
        <time>2012-04-01T09:21:32Z</time>
      </trkpt>
      <trkpt lat="43.16752" lon="6.34402">
        <ele>417.7</ele>
        <time>2012-04-01T09:21:33Z</time>
      </trkpt>
      <trkpt lat="43.16742" lon="6.34421">
        <ele>418.6</ele>
        <time>2012-04-01T09:22:01Z</time>
      </trkpt>
      <trkpt lat="43.1674" lon="6.34432">
        <ele>419.4</ele>
        <time>2012-04-01T09:22:16Z</time>
      </trkpt>
      <trkpt lat="43.16737" lon="6.34444">
        <ele>420.1</ele>
        <time>2012-04-01T09:22:36Z</time>
      </trkpt>
      <trkpt lat="43.16737" lon="6.34445">
        <ele>420.2</ele>
        <time>2012-04-01T09:22:37Z</time>
      </trkpt>
      <trkpt lat="43.16736" lon="6.34467">
        <ele>421.8</ele>
        <time>2012-04-01T09:23:06Z</time>
      </trkpt>
      <trkpt lat="43.16735" lon="6.34479">
        <ele>422.7</ele>
        <time>2012-04-01T09:23:26Z</time>
      </trkpt>
      <trkpt lat="43.16734" lon="6.34491">
        <ele>423</ele>
        <time>2012-04-01T09:23:45Z</time>
      </trkpt>
      <trkpt lat="43.16734" lon="6.34492">
        <ele>422.9</ele>
        <time>2012-04-01T09:23:46Z</time>
      </trkpt>
      <trkpt lat="43.16732" lon="6.34515">
        <ele>422.8</ele>
        <time>2012-04-01T09:26:11Z</time>
      </trkpt>
      <trkpt lat="43.16732" lon="6.34516">
        <ele>422.5</ele>
        <time>2012-04-01T09:26:12Z</time>
      </trkpt>
      <trkpt lat="43.16721" lon="6.34533">
        <ele>420.5</ele>
        <time>2012-04-01T09:26:45Z</time>
      </trkpt>
      <trkpt lat="43.16719" lon="6.34545">
        <ele>420.1</ele>
        <time>2012-04-01T09:27:26Z</time>
      </trkpt>
      <trkpt lat="43.16719" lon="6.34545">
        <ele>419.9</ele>
        <time>2012-04-01T09:27:27Z</time>
      </trkpt>
      <trkpt lat="43.16728" lon="6.34565">
        <ele>422.5</ele>
        <time>2012-04-01T09:28:05Z</time>
      </trkpt>
      <trkpt lat="43.16733" lon="6.34573">
        <ele>422.1</ele>
        <time>2012-04-01T09:28:45Z</time>
      </trkpt>
      <trkpt lat="43.16734" lon="6.34574">
        <ele>421.9</ele>
        <time>2012-04-01T09:28:46Z</time>
      </trkpt>
      <trkpt lat="43.16744" lon="6.34591">
        <ele>421.7</ele>
        <time>2012-04-01T09:29:12Z</time>
      </trkpt>
      <trkpt lat="43.16749" lon="6.34601">
        <ele>421.3</ele>
        <time>2012-04-01T09:29:25Z</time>
      </trkpt>
      <trkpt lat="43.16754" lon="6.34611">
        <ele>420</ele>
        <time>2012-04-01T09:29:34Z</time>
      </trkpt>
      <trkpt lat="43.16758" lon="6.34621">
        <ele>419.1</ele>
        <time>2012-04-01T09:29:44Z</time>
      </trkpt>
      <trkpt lat="43.1676" lon="6.34633">
        <ele>419</ele>
        <time>2012-04-01T09:29:56Z</time>
      </trkpt>
      <trkpt lat="43.1676" lon="6.34634">
        <ele>419.3</ele>
        <time>2012-04-01T09:29:57Z</time>
      </trkpt>
      <trkpt lat="43.16762" lon="6.34656">
        <ele>417.8</ele>
        <time>2012-04-01T09:30:14Z</time>
      </trkpt>
      <trkpt lat="43.16761" lon="6.34668">
        <ele>418.1</ele>
        <time>2012-04-01T09:30:24Z</time>
      </trkpt>
      <trkpt lat="43.16762" lon="6.3468">
        <ele>419.1</ele>
        <time>2012-04-01T09:30:35Z</time>
      </trkpt>
      <trkpt lat="43.16765" lon="6.34691">
        <ele>419.4</ele>
        <time>2012-04-01T09:30:44Z</time>
      </trkpt>
      <trkpt lat="43.16769" lon="6.34702">
        <ele>420.4</ele>
        <time>2012-04-01T09:30:54Z</time>
      </trkpt>
      <trkpt lat="43.16772" lon="6.34713">
        <ele>420.5</ele>
        <time>2012-04-01T09:31:04Z</time>
      </trkpt>
      <trkpt lat="43.16773" lon="6.34714">
        <ele>420.3</ele>
        <time>2012-04-01T09:31:05Z</time>
      </trkpt>
      <trkpt lat="43.16767" lon="6.34735">
        <ele>417.9</ele>
        <time>2012-04-01T09:31:24Z</time>
      </trkpt>
      <trkpt lat="43.16764" lon="6.34746">
        <ele>416.1</ele>
        <time>2012-04-01T09:31:37Z</time>
      </trkpt>
      <trkpt lat="43.16768" lon="6.34756">
        <ele>414.7</ele>
        <time>2012-04-01T09:31:47Z</time>
      </trkpt>
      <trkpt lat="43.16774" lon="6.34765">
        <ele>413</ele>
        <time>2012-04-01T09:31:57Z</time>
      </trkpt>
      <trkpt lat="43.16778" lon="6.34776">
        <ele>411.8</ele>
        <time>2012-04-01T09:32:07Z</time>
      </trkpt>
      <trkpt lat="43.16778" lon="6.34777">
        <ele>411.7</ele>
        <time>2012-04-01T09:32:08Z</time>
      </trkpt>
      <trkpt lat="43.16777" lon="6.348">
        <ele>409</ele>
        <time>2012-04-01T09:32:28Z</time>
      </trkpt>
      <trkpt lat="43.16776" lon="6.34811">
        <ele>408</ele>
        <time>2012-04-01T09:32:37Z</time>
      </trkpt>
      <trkpt lat="43.16776" lon="6.34823">
        <ele>408.1</ele>
        <time>2012-04-01T09:32:47Z</time>
      </trkpt>
      <trkpt lat="43.16775" lon="6.34835">
        <ele>407.7</ele>
        <time>2012-04-01T09:32:56Z</time>
      </trkpt>
      <trkpt lat="43.16773" lon="6.34846">
        <ele>408.1</ele>
        <time>2012-04-01T09:33:07Z</time>
      </trkpt>
      <trkpt lat="43.16772" lon="6.34858">
        <ele>408.4</ele>
        <time>2012-04-01T09:33:18Z</time>
      </trkpt>
      <trkpt lat="43.16772" lon="6.34859">
        <ele>408.2</ele>
        <time>2012-04-01T09:33:19Z</time>
      </trkpt>
      <trkpt lat="43.1677" lon="6.34881">
        <ele>408</ele>
        <time>2012-04-01T09:33:37Z</time>
      </trkpt>
      <trkpt lat="43.1677" lon="6.34893">
        <ele>408.2</ele>
        <time>2012-04-01T09:33:46Z</time>
      </trkpt>
      <trkpt lat="43.16769" lon="6.34904">
        <ele>409.5</ele>
        <time>2012-04-01T09:33:56Z</time>
      </trkpt>
      <trkpt lat="43.16766" lon="6.34915">
        <ele>410.8</ele>
        <time>2012-04-01T09:34:06Z</time>
      </trkpt>
      <trkpt lat="43.16762" lon="6.34926">
        <ele>411.6</ele>
        <time>2012-04-01T09:34:16Z</time>
      </trkpt>
      <trkpt lat="43.16758" lon="6.34936">
        <ele>412.6</ele>
        <time>2012-04-01T09:34:25Z</time>
      </trkpt>
      <trkpt lat="43.16758" lon="6.34937">
        <ele>412.7</ele>
        <time>2012-04-01T09:34:26Z</time>
      </trkpt>
      <trkpt lat="43.16749" lon="6.34954">
        <ele>413.3</ele>
        <time>2012-04-01T09:34:43Z</time>
      </trkpt>
      <trkpt lat="43.16744" lon="6.34964">
        <ele>413.5</ele>
        <time>2012-04-01T09:34:54Z</time>
      </trkpt>
      <trkpt lat="43.16741" lon="6.34976">
        <ele>414.9</ele>
        <time>2012-04-01T09:35:06Z</time>
      </trkpt>
      <trkpt lat="43.16737" lon="6.34987">
        <ele>416.1</ele>
        <time>2012-04-01T09:35:18Z</time>
      </trkpt>
      <trkpt lat="43.16734" lon="6.34997">
        <ele>417.1</ele>
        <time>2012-04-01T09:35:29Z</time>
      </trkpt>
      <trkpt lat="43.16734" lon="6.34998">
        <ele>417.2</ele>
        <time>2012-04-01T09:35:30Z</time>
      </trkpt>
      <trkpt lat="43.16729" lon="6.3502">
        <ele>419.9</ele>
        <time>2012-04-01T09:35:52Z</time>
      </trkpt>
      <trkpt lat="43.16726" lon="6.35031">
        <ele>420.1</ele>
        <time>2012-04-01T09:36:03Z</time>
      </trkpt>
      <trkpt lat="43.16724" lon="6.35043">
        <ele>419.2</ele>
        <time>2012-04-01T09:36:13Z</time>
      </trkpt>
      <trkpt lat="43.16721" lon="6.35054">
        <ele>419.5</ele>
        <time>2012-04-01T09:36:23Z</time>
      </trkpt>
      <trkpt lat="43.16718" lon="6.35065">
        <ele>419.5</ele>
        <time>2012-04-01T09:36:33Z</time>
      </trkpt>
      <trkpt lat="43.16718" lon="6.35066">
        <ele>419.5</ele>
        <time>2012-04-01T09:36:34Z</time>
      </trkpt>
      <trkpt lat="43.16712" lon="6.35086">
        <ele>421.5</ele>
        <time>2012-04-01T09:36:54Z</time>
      </trkpt>
      <trkpt lat="43.16711" lon="6.35098">
        <ele>422.6</ele>
        <time>2012-04-01T09:37:06Z</time>
      </trkpt>
      <trkpt lat="43.16714" lon="6.35109">
        <ele>423.2</ele>
        <time>2012-04-01T09:37:16Z</time>
      </trkpt>
      <trkpt lat="43.16717" lon="6.3512">
        <ele>424</ele>
        <time>2012-04-01T09:37:26Z</time>
      </trkpt>
      <trkpt lat="43.16716" lon="6.35131">
        <ele>424.1</ele>
        <time>2012-04-01T09:37:37Z</time>
      </trkpt>
      <trkpt lat="43.16716" lon="6.35132">
        <ele>424.3</ele>
        <time>2012-04-01T09:37:38Z</time>
      </trkpt>
      <trkpt lat="43.16714" lon="6.35155">
        <ele>425.7</ele>
        <time>2012-04-01T09:37:58Z</time>
      </trkpt>
      <trkpt lat="43.16716" lon="6.35166">
        <ele>425.7</ele>
        <time>2012-04-01T09:38:08Z</time>
      </trkpt>
      <trkpt lat="43.16718" lon="6.35177">
        <ele>426.5</ele>
        <time>2012-04-01T09:38:19Z</time>
      </trkpt>
      <trkpt lat="43.16721" lon="6.35188">
        <ele>427.8</ele>
        <time>2012-04-01T09:38:31Z</time>
      </trkpt>
      <trkpt lat="43.16724" lon="6.352">
        <ele>428.5</ele>
        <time>2012-04-01T09:38:42Z</time>
      </trkpt>
      <trkpt lat="43.16724" lon="6.35201">
        <ele>428.6</ele>
        <time>2012-04-01T09:38:43Z</time>
      </trkpt>
      <trkpt lat="43.16724" lon="6.35223">
        <ele>428.1</ele>
        <time>2012-04-01T09:39:02Z</time>
      </trkpt>
      <trkpt lat="43.16722" lon="6.35235">
        <ele>428</ele>
        <time>2012-04-01T09:39:12Z</time>
      </trkpt>
      <trkpt lat="43.16721" lon="6.35246">
        <ele>427.9</ele>
        <time>2012-04-01T09:39:22Z</time>
      </trkpt>
      <trkpt lat="43.16721" lon="6.35258">
        <ele>428.1</ele>
        <time>2012-04-01T09:39:32Z</time>
      </trkpt>
      <trkpt lat="43.1672" lon="6.3527">
        <ele>427.7</ele>
        <time>2012-04-01T09:39:42Z</time>
      </trkpt>
      <trkpt lat="43.16719" lon="6.35281">
        <ele>428</ele>
        <time>2012-04-01T09:39:52Z</time>
      </trkpt>
      <trkpt lat="43.16719" lon="6.35283">
        <ele>427.9</ele>
        <time>2012-04-01T09:39:53Z</time>
      </trkpt>
      <trkpt lat="43.16718" lon="6.35305">
        <ele>427.5</ele>
        <time>2012-04-01T09:40:11Z</time>
      </trkpt>
      <trkpt lat="43.16717" lon="6.35316">
        <ele>427.4</ele>
        <time>2012-04-01T09:40:19Z</time>
      </trkpt>
      <trkpt lat="43.16716" lon="6.35328">
        <ele>426.7</ele>
        <time>2012-04-01T09:40:28Z</time>
      </trkpt>
      <trkpt lat="43.16717" lon="6.3534">
        <ele>426.8</ele>
        <time>2012-04-01T09:40:37Z</time>
      </trkpt>
      <trkpt lat="43.1672" lon="6.35351">
        <ele>427.6</ele>
        <time>2012-04-01T09:40:46Z</time>
      </trkpt>
      <trkpt lat="43.16722" lon="6.35363">
        <ele>428.2</ele>
        <time>2012-04-01T09:40:56Z</time>
      </trkpt>
      <trkpt lat="43.16722" lon="6.35363">
        <ele>428.4</ele>
        <time>2012-04-01T09:40:57Z</time>
      </trkpt>
      <trkpt lat="43.16731" lon="6.35381">
        <ele>430.4</ele>
        <time>2012-04-01T09:41:17Z</time>
      </trkpt>
      <trkpt lat="43.16734" lon="6.35392">
        <ele>431.2</ele>
        <time>2012-04-01T09:41:27Z</time>
      </trkpt>
      <trkpt lat="43.16736" lon="6.35404">
        <ele>431.3</ele>
        <time>2012-04-01T09:41:46Z</time>
      </trkpt>
      <trkpt lat="43.16739" lon="6.35414">
        <ele>431.3</ele>
        <time>2012-04-01T09:41:58Z</time>
      </trkpt>
      <trkpt lat="43.1674" lon="6.35415">
        <ele>430.9</ele>
        <time>2012-04-01T09:41:59Z</time>
      </trkpt>
      <trkpt lat="43.16753" lon="6.35429">
        <ele>431.2</ele>
        <time>2012-04-01T09:42:18Z</time>
      </trkpt>
      <trkpt lat="43.16761" lon="6.35428">
        <ele>430.5</ele>
        <time>2012-04-01T09:42:29Z</time>
      </trkpt>
      <trkpt lat="43.1677" lon="6.35428">
        <ele>431.6</ele>
        <time>2012-04-01T09:42:42Z</time>
      </trkpt>
      <trkpt lat="43.16778" lon="6.35432">
        <ele>432.5</ele>
        <time>2012-04-01T09:42:54Z</time>
      </trkpt>
      <trkpt lat="43.16785" lon="6.35437">
        <ele>434</ele>
        <time>2012-04-01T09:43:04Z</time>
      </trkpt>
      <trkpt lat="43.16786" lon="6.35438">
        <ele>434.1</ele>
        <time>2012-04-01T09:43:05Z</time>
      </trkpt>
      <trkpt lat="43.16799" lon="6.35452">
        <ele>436.5</ele>
        <time>2012-04-01T09:43:25Z</time>
      </trkpt>
      <trkpt lat="43.16805" lon="6.3546">
        <ele>436.8</ele>
        <time>2012-04-01T09:43:34Z</time>
      </trkpt>
      <trkpt lat="43.16811" lon="6.35468">
        <ele>436.7</ele>
        <time>2012-04-01T09:43:43Z</time>
      </trkpt>
      <trkpt lat="43.16819" lon="6.35475">
        <ele>435.3</ele>
        <time>2012-04-01T09:43:53Z</time>
      </trkpt>
      <trkpt lat="43.16826" lon="6.35482">
        <ele>434.6</ele>
        <time>2012-04-01T09:44:02Z</time>
      </trkpt>
      <trkpt lat="43.16832" lon="6.35489">
        <ele>435.3</ele>
        <time>2012-04-01T09:44:35Z</time>
      </trkpt>
      <trkpt lat="43.16833" lon="6.3549">
        <ele>435.5</ele>
        <time>2012-04-01T09:44:36Z</time>
      </trkpt>
      <trkpt lat="43.16845" lon="6.35506">
        <ele>436</ele>
        <time>2012-04-01T09:44:55Z</time>
      </trkpt>
      <trkpt lat="43.1685" lon="6.35515">
        <ele>437.8</ele>
        <time>2012-04-01T09:45:04Z</time>
      </trkpt>
      <trkpt lat="43.16855" lon="6.35524">
        <ele>438.3</ele>
        <time>2012-04-01T09:45:13Z</time>
      </trkpt>
      <trkpt lat="43.16862" lon="6.35531">
        <ele>438.1</ele>
        <time>2012-04-01T09:45:22Z</time>
      </trkpt>
      <trkpt lat="43.1687" lon="6.35535">
        <ele>437.3</ele>
        <time>2012-04-01T09:45:31Z</time>
      </trkpt>
      <trkpt lat="43.16877" lon="6.35541">
        <ele>437.2</ele>
        <time>2012-04-01T09:45:40Z</time>
      </trkpt>
      <trkpt lat="43.16878" lon="6.35542">
        <ele>436.8</ele>
        <time>2012-04-01T09:45:41Z</time>
      </trkpt>
      <trkpt lat="43.16887" lon="6.3556">
        <ele>437.1</ele>
        <time>2012-04-01T09:45:58Z</time>
      </trkpt>
      <trkpt lat="43.16893" lon="6.35568">
        <ele>437.5</ele>
        <time>2012-04-01T09:46:08Z</time>
      </trkpt>
      <trkpt lat="43.169" lon="6.35576">
        <ele>437.1</ele>
        <time>2012-04-01T09:46:17Z</time>
      </trkpt>
      <trkpt lat="43.16905" lon="6.35585">
        <ele>437.6</ele>
        <time>2012-04-01T09:46:26Z</time>
      </trkpt>
      <trkpt lat="43.16911" lon="6.35593">
        <ele>437.4</ele>
        <time>2012-04-01T09:46:34Z</time>
      </trkpt>
      <trkpt lat="43.16916" lon="6.35602">
        <ele>436.8</ele>
        <time>2012-04-01T09:46:43Z</time>
      </trkpt>
      <trkpt lat="43.16917" lon="6.35603">
        <ele>437</ele>
        <time>2012-04-01T09:46:44Z</time>
      </trkpt>
      <trkpt lat="43.16928" lon="6.3562">
        <ele>436.5</ele>
        <time>2012-04-01T09:47:01Z</time>
      </trkpt>
      <trkpt lat="43.16932" lon="6.3563">
        <ele>437.1</ele>
        <time>2012-04-01T09:47:10Z</time>
      </trkpt>
      <trkpt lat="43.16936" lon="6.3564">
        <ele>437</ele>
        <time>2012-04-01T09:47:19Z</time>
      </trkpt>
      <trkpt lat="43.16941" lon="6.35651">
        <ele>438.5</ele>
        <time>2012-04-01T09:47:29Z</time>
      </trkpt>
      <trkpt lat="43.16946" lon="6.3566">
        <ele>438.7</ele>
        <time>2012-04-01T09:47:39Z</time>
      </trkpt>
      <trkpt lat="43.16951" lon="6.35671">
        <ele>437.8</ele>
        <time>2012-04-01T09:47:49Z</time>
      </trkpt>
      <trkpt lat="43.16951" lon="6.35672">
        <ele>437.5</ele>
        <time>2012-04-01T09:47:50Z</time>
      </trkpt>
      <trkpt lat="43.1696" lon="6.3569">
        <ele>438.3</ele>
        <time>2012-04-01T09:48:27Z</time>
      </trkpt>
      <trkpt lat="43.16966" lon="6.357">
        <ele>439.2</ele>
        <time>2012-04-01T09:48:58Z</time>
      </trkpt>
      <trkpt lat="43.16966" lon="6.35701">
        <ele>439.3</ele>
        <time>2012-04-01T09:48:59Z</time>
      </trkpt>
      <trkpt lat="43.16973" lon="6.35721">
        <ele>439.6</ele>
        <time>2012-04-01T09:49:17Z</time>
      </trkpt>
      <trkpt lat="43.16977" lon="6.35731">
        <ele>439.4</ele>
        <time>2012-04-01T09:49:26Z</time>
      </trkpt>
      <trkpt lat="43.16981" lon="6.35742">
        <ele>438.9</ele>
        <time>2012-04-01T09:49:35Z</time>
      </trkpt>
      <trkpt lat="43.16986" lon="6.35751">
        <ele>438.5</ele>
        <time>2012-04-01T09:49:43Z</time>
      </trkpt>
      <trkpt lat="43.1699" lon="6.35762">
        <ele>438.7</ele>
        <time>2012-04-01T09:49:52Z</time>
      </trkpt>
      <trkpt lat="43.16994" lon="6.35772">
        <ele>439</ele>
        <time>2012-04-01T09:50:01Z</time>
      </trkpt>
      <trkpt lat="43.16994" lon="6.35773">
        <ele>439.1</ele>
        <time>2012-04-01T09:50:02Z</time>
      </trkpt>
      <trkpt lat="43.17004" lon="6.35792">
        <ele>439.8</ele>
        <time>2012-04-01T09:50:24Z</time>
      </trkpt>
      <trkpt lat="43.17008" lon="6.35802">
        <ele>441.7</ele>
        <time>2012-04-01T09:50:37Z</time>
      </trkpt>
      <trkpt lat="43.1701" lon="6.35814">
        <ele>442.7</ele>
        <time>2012-04-01T09:50:52Z</time>
      </trkpt>
      <trkpt lat="43.17009" lon="6.35826">
        <ele>442.6</ele>
        <time>2012-04-01T09:52:37Z</time>
      </trkpt>
      <trkpt lat="43.17008" lon="6.35827">
        <ele>442.4</ele>
        <time>2012-04-01T09:52:38Z</time>
      </trkpt>
      <trkpt lat="43.16999" lon="6.35846">
        <ele>443.6</ele>
        <time>2012-04-01T09:53:23Z</time>
      </trkpt>
      <trkpt lat="43.16994" lon="6.35855">
        <ele>443.3</ele>
        <time>2012-04-01T09:53:35Z</time>
      </trkpt>
      <trkpt lat="43.16988" lon="6.35864">
        <ele>441.5</ele>
        <time>2012-04-01T09:53:47Z</time>
      </trkpt>
      <trkpt lat="43.16987" lon="6.35864">
        <ele>441.6</ele>
        <time>2012-04-01T09:53:48Z</time>
      </trkpt>
      <trkpt lat="43.16982" lon="6.35884">
        <ele>440.5</ele>
        <time>2012-04-01T09:54:12Z</time>
      </trkpt>
      <trkpt lat="43.16986" lon="6.35895">
        <ele>440.3</ele>
        <time>2012-04-01T09:54:22Z</time>
      </trkpt>
      <trkpt lat="43.1699" lon="6.35906">
        <ele>439.4</ele>
        <time>2012-04-01T09:54:31Z</time>
      </trkpt>
      <trkpt lat="43.16991" lon="6.35918">
        <ele>438.5</ele>
        <time>2012-04-01T09:54:40Z</time>
      </trkpt>
      <trkpt lat="43.1699" lon="6.35929">
        <ele>438.1</ele>
        <time>2012-04-01T09:54:49Z</time>
      </trkpt>
      <trkpt lat="43.1699" lon="6.3593">
        <ele>438.3</ele>
        <time>2012-04-01T09:54:50Z</time>
      </trkpt>
      <trkpt lat="43.16983" lon="6.35949">
        <ele>436.1</ele>
        <time>2012-04-01T09:55:05Z</time>
      </trkpt>
      <trkpt lat="43.16978" lon="6.35959">
        <ele>434.9</ele>
        <time>2012-04-01T09:55:14Z</time>
      </trkpt>
      <trkpt lat="43.16974" lon="6.3597">
        <ele>433.4</ele>
        <time>2012-04-01T09:55:22Z</time>
      </trkpt>
      <trkpt lat="43.16971" lon="6.35981">
        <ele>431.9</ele>
        <time>2012-04-01T09:55:30Z</time>
      </trkpt>
      <trkpt lat="43.16967" lon="6.35991">
        <ele>432.3</ele>
        <time>2012-04-01T09:55:38Z</time>
      </trkpt>
      <trkpt lat="43.16962" lon="6.36001">
        <ele>433.6</ele>
        <time>2012-04-01T09:55:47Z</time>
      </trkpt>
      <trkpt lat="43.16957" lon="6.3601">
        <ele>433.2</ele>
        <time>2012-04-01T09:55:55Z</time>
      </trkpt>
      <trkpt lat="43.16956" lon="6.36011">
        <ele>433.3</ele>
        <time>2012-04-01T09:55:56Z</time>
      </trkpt>
      <trkpt lat="43.16953" lon="6.36032">
        <ele>430</ele>
        <time>2012-04-01T09:56:15Z</time>
      </trkpt>
      <trkpt lat="43.16951" lon="6.36044">
        <ele>429.4</ele>
        <time>2012-04-01T09:56:24Z</time>
      </trkpt>
      <trkpt lat="43.16947" lon="6.36055">
        <ele>429.5</ele>
        <time>2012-04-01T09:56:33Z</time>
      </trkpt>
      <trkpt lat="43.16943" lon="6.36065">
        <ele>429.2</ele>
        <time>2012-04-01T09:56:43Z</time>
      </trkpt>
      <trkpt lat="43.16937" lon="6.36074">
        <ele>430.8</ele>
        <time>2012-04-01T09:56:52Z</time>
      </trkpt>
      <trkpt lat="43.16932" lon="6.36084">
        <ele>429.6</ele>
        <time>2012-04-01T09:57:03Z</time>
      </trkpt>
      <trkpt lat="43.16932" lon="6.36085">
        <ele>429.3</ele>
        <time>2012-04-01T09:57:04Z</time>
      </trkpt>
      <trkpt lat="43.16927" lon="6.36106">
        <ele>428.6</ele>
        <time>2012-04-01T09:57:33Z</time>
      </trkpt>
      <trkpt lat="43.1693" lon="6.36117">
        <ele>427.7</ele>
        <time>2012-04-01T09:58:39Z</time>
      </trkpt>
      <trkpt lat="43.1693" lon="6.36118">
        <ele>427.7</ele>
        <time>2012-04-01T09:58:40Z</time>
      </trkpt>
      <trkpt lat="43.16942" lon="6.36135">
        <ele>423.6</ele>
        <time>2012-04-01T09:59:34Z</time>
      </trkpt>
      <trkpt lat="43.1695" lon="6.3614">
        <ele>421.6</ele>
        <time>2012-04-01T09:59:45Z</time>
      </trkpt>
      <trkpt lat="43.1695" lon="6.36141">
        <ele>421.5</ele>
        <time>2012-04-01T09:59:46Z</time>
      </trkpt>
      <trkpt lat="43.16965" lon="6.36151">
        <ele>419.5</ele>
        <time>2012-04-01T10:00:03Z</time>
      </trkpt>
      <trkpt lat="43.16972" lon="6.36156">
        <ele>419.5</ele>
        <time>2012-04-01T10:00:12Z</time>
      </trkpt>
      <trkpt lat="43.1698" lon="6.3616">
        <ele>419.1</ele>
        <time>2012-04-01T10:00:21Z</time>
      </trkpt>
      <trkpt lat="43.16988" lon="6.36164">
        <ele>419.6</ele>
        <time>2012-04-01T10:00:29Z</time>
      </trkpt>
      <trkpt lat="43.16995" lon="6.36168">
        <ele>419.9</ele>
        <time>2012-04-01T10:00:38Z</time>
      </trkpt>
      <trkpt lat="43.17004" lon="6.36172">
        <ele>420.5</ele>
        <time>2012-04-01T10:00:48Z</time>
      </trkpt>
      <trkpt lat="43.17004" lon="6.36172">
        <ele>420.9</ele>
        <time>2012-04-01T10:00:49Z</time>
      </trkpt>
      <trkpt lat="43.1702" lon="6.36179">
        <ele>422.3</ele>
        <time>2012-04-01T10:01:10Z</time>
      </trkpt>
      <trkpt lat="43.17029" lon="6.36184">
        <ele>422.6</ele>
        <time>2012-04-01T10:01:20Z</time>
      </trkpt>
      <trkpt lat="43.17036" lon="6.36191">
        <ele>424.2</ele>
        <time>2012-04-01T10:01:30Z</time>
      </trkpt>
      <trkpt lat="43.17042" lon="6.362">
        <ele>423.9</ele>
        <time>2012-04-01T10:01:41Z</time>
      </trkpt>
      <trkpt lat="43.17047" lon="6.36209">
        <ele>425.1</ele>
        <time>2012-04-01T10:01:53Z</time>
      </trkpt>
      <trkpt lat="43.17048" lon="6.3621">
        <ele>425.3</ele>
        <time>2012-04-01T10:01:54Z</time>
      </trkpt>
      <trkpt lat="43.17059" lon="6.36226">
        <ele>427.8</ele>
        <time>2012-04-01T10:02:19Z</time>
      </trkpt>
      <trkpt lat="43.17065" lon="6.36233">
        <ele>429.2</ele>
        <time>2012-04-01T10:02:28Z</time>
      </trkpt>
      <trkpt lat="43.17071" lon="6.36242">
        <ele>428.9</ele>
        <time>2012-04-01T10:02:38Z</time>
      </trkpt>
      <trkpt lat="43.17075" lon="6.36251">
        <ele>428.5</ele>
        <time>2012-04-01T10:02:48Z</time>
      </trkpt>
      <trkpt lat="43.17079" lon="6.36261">
        <ele>427.8</ele>
        <time>2012-04-01T10:02:58Z</time>
      </trkpt>
      <trkpt lat="43.17079" lon="6.36262">
        <ele>427.6</ele>
        <time>2012-04-01T10:02:59Z</time>
      </trkpt>
      <trkpt lat="43.17086" lon="6.36282">
        <ele>426.8</ele>
        <time>2012-04-01T10:03:18Z</time>
      </trkpt>
      <trkpt lat="43.17091" lon="6.36292">
        <ele>426.8</ele>
        <time>2012-04-01T10:03:27Z</time>
      </trkpt>
      <trkpt lat="43.17093" lon="6.36304">
        <ele>426.4</ele>
        <time>2012-04-01T10:03:36Z</time>
      </trkpt>
      <trkpt lat="43.17093" lon="6.36315">
        <ele>426.1</ele>
        <time>2012-04-01T10:03:45Z</time>
      </trkpt>
      <trkpt lat="43.17091" lon="6.36327">
        <ele>427.3</ele>
        <time>2012-04-01T10:03:55Z</time>
      </trkpt>
      <trkpt lat="43.17088" lon="6.36337">
        <ele>426.5</ele>
        <time>2012-04-01T10:04:05Z</time>
      </trkpt>
      <trkpt lat="43.17087" lon="6.36338">
        <ele>426</ele>
        <time>2012-04-01T10:04:06Z</time>
      </trkpt>
      <trkpt lat="43.17076" lon="6.36354">
        <ele>425.6</ele>
        <time>2012-04-01T10:04:25Z</time>
      </trkpt>
      <trkpt lat="43.17072" lon="6.36364">
        <ele>426.6</ele>
        <time>2012-04-01T10:04:36Z</time>
      </trkpt>
      <trkpt lat="43.17072" lon="6.36376">
        <ele>426.9</ele>
        <time>2012-04-01T10:04:44Z</time>
      </trkpt>
      <trkpt lat="43.17076" lon="6.36387">
        <ele>426.6</ele>
        <time>2012-04-01T10:04:53Z</time>
      </trkpt>
      <trkpt lat="43.17081" lon="6.36397">
        <ele>427.3</ele>
        <time>2012-04-01T10:05:05Z</time>
      </trkpt>
      <trkpt lat="43.17084" lon="6.36408">
        <ele>427.6</ele>
        <time>2012-04-01T10:05:13Z</time>
      </trkpt>
      <trkpt lat="43.17085" lon="6.36409">
        <ele>427.7</ele>
        <time>2012-04-01T10:05:14Z</time>
      </trkpt>
      <trkpt lat="43.17086" lon="6.36431">
        <ele>428.9</ele>
        <time>2012-04-01T10:05:35Z</time>
      </trkpt>
      <trkpt lat="43.17086" lon="6.36443">
        <ele>429.2</ele>
        <time>2012-04-01T10:05:45Z</time>
      </trkpt>
      <trkpt lat="43.17088" lon="6.36455">
        <ele>429.3</ele>
        <time>2012-04-01T10:05:55Z</time>
      </trkpt>
      <trkpt lat="43.1709" lon="6.36467">
        <ele>429.1</ele>
        <time>2012-04-01T10:06:04Z</time>
      </trkpt>
      <trkpt lat="43.17092" lon="6.36478">
        <ele>429.2</ele>
        <time>2012-04-01T10:06:15Z</time>
      </trkpt>
      <trkpt lat="43.17092" lon="6.36479">
        <ele>429.1</ele>
        <time>2012-04-01T10:06:16Z</time>
      </trkpt>
      <trkpt lat="43.17093" lon="6.36502">
        <ele>435</ele>
        <time>2012-04-01T10:06:40Z</time>
      </trkpt>
      <trkpt lat="43.17092" lon="6.36513">
        <ele>437</ele>
        <time>2012-04-01T10:06:53Z</time>
      </trkpt>
      <trkpt lat="43.17095" lon="6.36525">
        <ele>437.6</ele>
        <time>2012-04-01T10:07:06Z</time>
      </trkpt>
      <trkpt lat="43.17098" lon="6.36536">
        <ele>437.4</ele>
        <time>2012-04-01T10:07:17Z</time>
      </trkpt>
      <trkpt lat="43.17098" lon="6.36537">
        <ele>437.5</ele>
        <time>2012-04-01T10:07:18Z</time>
      </trkpt>
      <trkpt lat="43.17103" lon="6.36559">
        <ele>437.1</ele>
        <time>2012-04-01T10:07:38Z</time>
      </trkpt>
      <trkpt lat="43.17107" lon="6.36569">
        <ele>438.6</ele>
        <time>2012-04-01T10:07:47Z</time>
      </trkpt>
      <trkpt lat="43.1711" lon="6.36579">
        <ele>438.6</ele>
        <time>2012-04-01T10:07:56Z</time>
      </trkpt>
      <trkpt lat="43.17114" lon="6.3659">
        <ele>437.5</ele>
        <time>2012-04-01T10:08:06Z</time>
      </trkpt>
      <trkpt lat="43.17116" lon="6.36602">
        <ele>437.2</ele>
        <time>2012-04-01T10:08:16Z</time>
      </trkpt>
      <trkpt lat="43.17118" lon="6.36613">
        <ele>436.8</ele>
        <time>2012-04-01T10:08:25Z</time>
      </trkpt>
      <trkpt lat="43.17118" lon="6.36614">
        <ele>436.5</ele>
        <time>2012-04-01T10:08:26Z</time>
      </trkpt>
      <trkpt lat="43.17123" lon="6.36636">
        <ele>436.8</ele>
        <time>2012-04-01T10:08:44Z</time>
      </trkpt>
      <trkpt lat="43.17126" lon="6.36647">
        <ele>436.8</ele>
        <time>2012-04-01T10:08:52Z</time>
      </trkpt>
      <trkpt lat="43.17129" lon="6.36657">
        <ele>435.8</ele>
        <time>2012-04-01T10:09:00Z</time>
      </trkpt>
      <trkpt lat="43.17131" lon="6.36668">
        <ele>437.7</ele>
        <time>2012-04-01T10:09:08Z</time>
      </trkpt>
      <trkpt lat="43.17135" lon="6.36678">
        <ele>437.8</ele>
        <time>2012-04-01T10:09:17Z</time>
      </trkpt>
      <trkpt lat="43.17139" lon="6.36688">
        <ele>438.3</ele>
        <time>2012-04-01T10:09:25Z</time>
      </trkpt>
      <trkpt lat="43.17144" lon="6.36697">
        <ele>437.7</ele>
        <time>2012-04-01T10:09:33Z</time>
      </trkpt>
      <trkpt lat="43.17144" lon="6.36698">
        <ele>437.9</ele>
        <time>2012-04-01T10:09:34Z</time>
      </trkpt>
      <trkpt lat="43.17154" lon="6.36717">
        <ele>438.8</ele>
        <time>2012-04-01T10:09:52Z</time>
      </trkpt>
      <trkpt lat="43.17159" lon="6.36726">
        <ele>440.5</ele>
        <time>2012-04-01T10:10:01Z</time>
      </trkpt>
      <trkpt lat="43.17164" lon="6.36736">
        <ele>439.9</ele>
        <time>2012-04-01T10:10:10Z</time>
      </trkpt>
      <trkpt lat="43.17169" lon="6.36746">
        <ele>440.4</ele>
        <time>2012-04-01T10:10:19Z</time>
      </trkpt>
      <trkpt lat="43.17174" lon="6.36755">
        <ele>440.8</ele>
        <time>2012-04-01T10:10:28Z</time>
      </trkpt>
      <trkpt lat="43.17179" lon="6.36765">
        <ele>442.7</ele>
        <time>2012-04-01T10:10:37Z</time>
      </trkpt>
      <trkpt lat="43.17179" lon="6.36766">
        <ele>442.1</ele>
        <time>2012-04-01T10:10:38Z</time>
      </trkpt>
      <trkpt lat="43.17189" lon="6.36785">
        <ele>442.7</ele>
        <time>2012-04-01T10:10:56Z</time>
      </trkpt>
      <trkpt lat="43.17193" lon="6.36795">
        <ele>444.6</ele>
        <time>2012-04-01T10:11:09Z</time>
      </trkpt>
      <trkpt lat="43.17198" lon="6.36805">
        <ele>446.5</ele>
        <time>2012-04-01T10:11:22Z</time>
      </trkpt>
      <trkpt lat="43.17201" lon="6.36816">
        <ele>444.8</ele>
        <time>2012-04-01T10:11:33Z</time>
      </trkpt>
      <trkpt lat="43.17204" lon="6.36827">
        <ele>445.5</ele>
        <time>2012-04-01T10:11:43Z</time>
      </trkpt>
      <trkpt lat="43.17204" lon="6.36828">
        <ele>445.7</ele>
        <time>2012-04-01T10:11:44Z</time>
      </trkpt>
      <trkpt lat="43.17211" lon="6.36849">
        <ele>445.3</ele>
        <time>2012-04-01T10:12:03Z</time>
      </trkpt>
      <trkpt lat="43.17216" lon="6.36859">
        <ele>446.4</ele>
        <time>2012-04-01T10:12:13Z</time>
      </trkpt>
      <trkpt lat="43.17223" lon="6.36866">
        <ele>447.4</ele>
        <time>2012-04-01T10:12:23Z</time>
      </trkpt>
      <trkpt lat="43.17231" lon="6.36871">
        <ele>448.4</ele>
        <time>2012-04-01T10:12:33Z</time>
      </trkpt>
      <trkpt lat="43.17239" lon="6.36875">
        <ele>448.8</ele>
        <time>2012-04-01T10:12:43Z</time>
      </trkpt>
      <trkpt lat="43.17246" lon="6.36881">
        <ele>449.6</ele>
        <time>2012-04-01T10:12:53Z</time>
      </trkpt>
      <trkpt lat="43.17247" lon="6.36881">
        <ele>449.5</ele>
        <time>2012-04-01T10:12:54Z</time>
      </trkpt>
      <trkpt lat="43.17261" lon="6.36891">
        <ele>450.7</ele>
        <time>2012-04-01T10:13:14Z</time>
      </trkpt>
      <trkpt lat="43.17268" lon="6.36897">
        <ele>449.6</ele>
        <time>2012-04-01T10:13:23Z</time>
      </trkpt>
      <trkpt lat="43.17276" lon="6.36902">
        <ele>449.5</ele>
        <time>2012-04-01T10:13:41Z</time>
      </trkpt>
      <trkpt lat="43.17283" lon="6.36909">
        <ele>449.9</ele>
        <time>2012-04-01T10:13:50Z</time>
      </trkpt>
      <trkpt lat="43.17289" lon="6.36918">
        <ele>448.8</ele>
        <time>2012-04-01T10:14:04Z</time>
      </trkpt>
      <trkpt lat="43.17289" lon="6.36919">
        <ele>448.6</ele>
        <time>2012-04-01T10:14:05Z</time>
      </trkpt>
      <trkpt lat="43.17294" lon="6.3694">
        <ele>448</ele>
        <time>2012-04-01T10:14:25Z</time>
      </trkpt>
      <trkpt lat="43.17296" lon="6.36951">
        <ele>447.5</ele>
        <time>2012-04-01T10:14:37Z</time>
      </trkpt>
      <trkpt lat="43.17302" lon="6.36959">
        <ele>446.4</ele>
        <time>2012-04-01T10:14:48Z</time>
      </trkpt>
      <trkpt lat="43.1731" lon="6.36963">
        <ele>446.2</ele>
        <time>2012-04-01T10:14:58Z</time>
      </trkpt>
      <trkpt lat="43.17318" lon="6.36968">
        <ele>445.3</ele>
        <time>2012-04-01T10:16:16Z</time>
      </trkpt>
      <trkpt lat="43.17319" lon="6.36968">
        <ele>445.2</ele>
        <time>2012-04-01T10:16:17Z</time>
      </trkpt>
      <trkpt lat="43.17335" lon="6.36967">
        <ele>444.2</ele>
        <time>2012-04-01T10:17:03Z</time>
      </trkpt>
      <trkpt lat="43.17343" lon="6.36965">
        <ele>444.3</ele>
        <time>2012-04-01T10:17:13Z</time>
      </trkpt>
      <trkpt lat="43.17352" lon="6.36962">
        <ele>444</ele>
        <time>2012-04-01T10:17:23Z</time>
      </trkpt>
      <trkpt lat="43.17353" lon="6.36962">
        <ele>444</ele>
        <time>2012-04-01T10:17:24Z</time>
      </trkpt>
      <trkpt lat="43.17369" lon="6.36959">
        <ele>443.8</ele>
        <time>2012-04-01T10:17:43Z</time>
      </trkpt>
      <trkpt lat="43.17377" lon="6.36958">
        <ele>442</ele>
        <time>2012-04-01T10:17:53Z</time>
      </trkpt>
      <trkpt lat="43.17386" lon="6.36957">
        <ele>442.6</ele>
        <time>2012-04-01T10:18:03Z</time>
      </trkpt>
      <trkpt lat="43.17394" lon="6.36957">
        <ele>442.1</ele>
        <time>2012-04-01T10:18:12Z</time>
      </trkpt>
      <trkpt lat="43.17402" lon="6.36957">
        <ele>441.3</ele>
        <time>2012-04-01T10:18:20Z</time>
      </trkpt>
      <trkpt lat="43.17411" lon="6.36959">
        <ele>441.5</ele>
        <time>2012-04-01T10:18:29Z</time>
      </trkpt>
      <trkpt lat="43.17411" lon="6.36959">
        <ele>441.4</ele>
        <time>2012-04-01T10:18:30Z</time>
      </trkpt>
      <trkpt lat="43.17426" lon="6.36971">
        <ele>442.1</ele>
        <time>2012-04-01T10:18:50Z</time>
      </trkpt>
      <trkpt lat="43.1743" lon="6.36981">
        <ele>441.6</ele>
        <time>2012-04-01T10:19:00Z</time>
      </trkpt>
      <trkpt lat="43.1743" lon="6.36992">
        <ele>441.1</ele>
        <time>2012-04-01T10:19:09Z</time>
      </trkpt>
      <trkpt lat="43.17432" lon="6.37004">
        <ele>441</ele>
        <time>2012-04-01T10:19:17Z</time>
      </trkpt>
      <trkpt lat="43.17433" lon="6.37015">
        <ele>440.9</ele>
        <time>2012-04-01T10:19:26Z</time>
      </trkpt>
      <trkpt lat="43.17434" lon="6.37026">
        <ele>439.8</ele>
        <time>2012-04-01T10:19:35Z</time>
      </trkpt>
      <trkpt lat="43.17434" lon="6.37027">
        <ele>439.8</ele>
        <time>2012-04-01T10:19:36Z</time>
      </trkpt>
      <trkpt lat="43.17431" lon="6.37049">
        <ele>438.9</ele>
        <time>2012-04-01T10:19:53Z</time>
      </trkpt>
      <trkpt lat="43.17428" lon="6.3706">
        <ele>439.4</ele>
        <time>2012-04-01T10:20:02Z</time>
      </trkpt>
      <trkpt lat="43.17425" lon="6.37071">
        <ele>438.3</ele>
        <time>2012-04-01T10:20:10Z</time>
      </trkpt>
      <trkpt lat="43.17424" lon="6.37082">
        <ele>437.7</ele>
        <time>2012-04-01T10:20:18Z</time>
      </trkpt>
      <trkpt lat="43.17423" lon="6.37093">
        <ele>437.6</ele>
        <time>2012-04-01T10:20:26Z</time>
      </trkpt>
      <trkpt lat="43.17423" lon="6.37105">
        <ele>436.9</ele>
        <time>2012-04-01T10:20:36Z</time>
      </trkpt>
      <trkpt lat="43.17423" lon="6.37106">
        <ele>436.9</ele>
        <time>2012-04-01T10:20:37Z</time>
      </trkpt>
      <trkpt lat="43.17421" lon="6.37128">
        <ele>437</ele>
        <time>2012-04-01T10:20:54Z</time>
      </trkpt>
      <trkpt lat="43.1742" lon="6.3714">
        <ele>435.6</ele>
        <time>2012-04-01T10:21:03Z</time>
      </trkpt>
      <trkpt lat="43.17419" lon="6.37152">
        <ele>435.9</ele>
        <time>2012-04-01T10:21:16Z</time>
      </trkpt>
      <trkpt lat="43.17415" lon="6.37162">
        <ele>434.2</ele>
        <time>2012-04-01T10:21:46Z</time>
      </trkpt>
      <trkpt lat="43.17414" lon="6.37163">
        <ele>433.7</ele>
        <time>2012-04-01T10:21:47Z</time>
      </trkpt>
      <trkpt lat="43.17398" lon="6.37165">
        <ele>430.2</ele>
        <time>2012-04-01T10:22:22Z</time>
      </trkpt>
      <trkpt lat="43.17389" lon="6.37163">
        <ele>429.5</ele>
        <time>2012-04-01T10:22:37Z</time>
      </trkpt>
      <trkpt lat="43.17381" lon="6.37162">
        <ele>429.9</ele>
        <time>2012-04-01T10:22:47Z</time>
      </trkpt>
      <trkpt lat="43.1738" lon="6.37162">
        <ele>429.7</ele>
        <time>2012-04-01T10:22:48Z</time>
      </trkpt>
      <trkpt lat="43.17364" lon="6.37165">
        <ele>427</ele>
        <time>2012-04-01T10:23:07Z</time>
      </trkpt>
      <trkpt lat="43.17356" lon="6.37168">
        <ele>426.7</ele>
        <time>2012-04-01T10:23:17Z</time>
      </trkpt>
      <trkpt lat="43.17347" lon="6.37164">
        <ele>425</ele>
        <time>2012-04-01T10:23:28Z</time>
      </trkpt>
      <trkpt lat="43.1734" lon="6.37158">
        <ele>424.6</ele>
        <time>2012-04-01T10:23:38Z</time>
      </trkpt>
      <trkpt lat="43.17333" lon="6.37152">
        <ele>423.7</ele>
        <time>2012-04-01T10:23:48Z</time>
      </trkpt>
      <trkpt lat="43.17332" lon="6.37151">
        <ele>423.5</ele>
        <time>2012-04-01T10:23:49Z</time>
      </trkpt>
      <trkpt lat="43.17316" lon="6.37148">
        <ele>421.8</ele>
        <time>2012-04-01T10:24:09Z</time>
      </trkpt>
      <trkpt lat="43.17307" lon="6.37147">
        <ele>421.5</ele>
        <time>2012-04-01T10:24:19Z</time>
      </trkpt>
      <trkpt lat="43.173" lon="6.37143">
        <ele>419.7</ele>
        <time>2012-04-01T10:24:27Z</time>
      </trkpt>
      <trkpt lat="43.17292" lon="6.37138">
        <ele>419.3</ele>
        <time>2012-04-01T10:24:37Z</time>
      </trkpt>
      <trkpt lat="43.17285" lon="6.37132">
        <ele>417.3</ele>
        <time>2012-04-01T10:24:48Z</time>
      </trkpt>
      <trkpt lat="43.17277" lon="6.37127">
        <ele>415.4</ele>
        <time>2012-04-01T10:24:58Z</time>
      </trkpt>
      <trkpt lat="43.17276" lon="6.37126">
        <ele>415.9</ele>
        <time>2012-04-01T10:24:59Z</time>
      </trkpt>
      <trkpt lat="43.17262" lon="6.37114">
        <ele>413.3</ele>
        <time>2012-04-01T10:25:21Z</time>
      </trkpt>
      <trkpt lat="43.17255" lon="6.37108">
        <ele>411.9</ele>
        <time>2012-04-01T10:25:33Z</time>
      </trkpt>
      <trkpt lat="43.17247" lon="6.37104">
        <ele>408.9</ele>
        <time>2012-04-01T10:25:44Z</time>
      </trkpt>
      <trkpt lat="43.17239" lon="6.37099">
        <ele>408.9</ele>
        <time>2012-04-01T10:25:55Z</time>
      </trkpt>
      <trkpt lat="43.17231" lon="6.37095">
        <ele>406.6</ele>
        <time>2012-04-01T10:26:06Z</time>
      </trkpt>
      <trkpt lat="43.1723" lon="6.37095">
        <ele>406.5</ele>
        <time>2012-04-01T10:26:07Z</time>
      </trkpt>
      <trkpt lat="43.17215" lon="6.37089">
        <ele>406.4</ele>
        <time>2012-04-01T10:26:25Z</time>
      </trkpt>
      <trkpt lat="43.17207" lon="6.37086">
        <ele>406.9</ele>
        <time>2012-04-01T10:26:44Z</time>
      </trkpt>
      <trkpt lat="43.17198" lon="6.37082">
        <ele>406.4</ele>
        <time>2012-04-01T10:26:54Z</time>
      </trkpt>
      <trkpt lat="43.17191" lon="6.37078">
        <ele>406.1</ele>
        <time>2012-04-01T10:27:03Z</time>
      </trkpt>
      <trkpt lat="43.17183" lon="6.37073">
        <ele>405.2</ele>
        <time>2012-04-01T10:27:12Z</time>
      </trkpt>
      <trkpt lat="43.17182" lon="6.37072">
        <ele>404.6</ele>
        <time>2012-04-01T10:27:13Z</time>
      </trkpt>
      <trkpt lat="43.17168" lon="6.37062">
        <ele>402.7</ele>
        <time>2012-04-01T10:27:28Z</time>
      </trkpt>
      <trkpt lat="43.1716" lon="6.37057">
        <ele>403</ele>
        <time>2012-04-01T10:27:37Z</time>
      </trkpt>
      <trkpt lat="43.17152" lon="6.37051">
        <ele>402.6</ele>
        <time>2012-04-01T10:27:45Z</time>
      </trkpt>
      <trkpt lat="43.17145" lon="6.37044">
        <ele>402.3</ele>
        <time>2012-04-01T10:27:54Z</time>
      </trkpt>
      <trkpt lat="43.17139" lon="6.37036">
        <ele>402</ele>
        <time>2012-04-01T10:28:03Z</time>
      </trkpt>
      <trkpt lat="43.17133" lon="6.37027">
        <ele>402.1</ele>
        <time>2012-04-01T10:28:12Z</time>
      </trkpt>
      <trkpt lat="43.17127" lon="6.37018">
        <ele>400.7</ele>
        <time>2012-04-01T10:28:21Z</time>
      </trkpt>
      <trkpt lat="43.17126" lon="6.37017">
        <ele>400.5</ele>
        <time>2012-04-01T10:28:22Z</time>
      </trkpt>
      <trkpt lat="43.17112" lon="6.37006">
        <ele>398.5</ele>
        <time>2012-04-01T10:28:42Z</time>
      </trkpt>
      <trkpt lat="43.17104" lon="6.36999">
        <ele>396.1</ele>
        <time>2012-04-01T10:29:00Z</time>
      </trkpt>
      <trkpt lat="43.17096" lon="6.36996">
        <ele>395</ele>
        <time>2012-04-01T10:29:13Z</time>
      </trkpt>
      <trkpt lat="43.17088" lon="6.36995">
        <ele>393.6</ele>
        <time>2012-04-01T10:29:25Z</time>
      </trkpt>
      <trkpt lat="43.17087" lon="6.36994">
        <ele>393.6</ele>
        <time>2012-04-01T10:29:26Z</time>
      </trkpt>
      <trkpt lat="43.17071" lon="6.36988">
        <ele>388.3</ele>
        <time>2012-04-01T10:30:19Z</time>
      </trkpt>
      <trkpt lat="43.17063" lon="6.36994">
        <ele>390.1</ele>
        <time>2012-04-01T11:20:49Z</time>
      </trkpt>
      <trkpt lat="43.17063" lon="6.36994">
        <ele>390</ele>
        <time>2012-04-01T11:20:50Z</time>
      </trkpt>
      <trkpt lat="43.1705" lon="6.3701">
        <ele>387.3</ele>
        <time>2012-04-01T11:21:18Z</time>
      </trkpt>
      <trkpt lat="43.17045" lon="6.37019">
        <ele>385.3</ele>
        <time>2012-04-01T11:21:31Z</time>
      </trkpt>
      <trkpt lat="43.1704" lon="6.37029">
        <ele>384.6</ele>
        <time>2012-04-01T11:21:43Z</time>
      </trkpt>
      <trkpt lat="43.17035" lon="6.37039">
        <ele>383.2</ele>
        <time>2012-04-01T11:21:57Z</time>
      </trkpt>
      <trkpt lat="43.17035" lon="6.3704">
        <ele>383</ele>
        <time>2012-04-01T11:21:58Z</time>
      </trkpt>
      <trkpt lat="43.17037" lon="6.37058">
        <ele>380.2</ele>
        <time>2012-04-01T11:22:54Z</time>
      </trkpt>
      <trkpt lat="43.17045" lon="6.37056">
        <ele>379.9</ele>
        <time>2012-04-01T11:23:05Z</time>
      </trkpt>
      <trkpt lat="43.17046" lon="6.37056">
        <ele>380</ele>
        <time>2012-04-01T11:23:06Z</time>
      </trkpt>
      <trkpt lat="43.17062" lon="6.37047">
        <ele>380.1</ele>
        <time>2012-04-01T11:23:26Z</time>
      </trkpt>
      <trkpt lat="43.1707" lon="6.37046">
        <ele>380.3</ele>
        <time>2012-04-01T11:23:39Z</time>
      </trkpt>
      <trkpt lat="43.17079" lon="6.37049">
        <ele>380.5</ele>
        <time>2012-04-01T11:23:53Z</time>
      </trkpt>
      <trkpt lat="43.17085" lon="6.37058">
        <ele>382</ele>
        <time>2012-04-01T11:24:04Z</time>
      </trkpt>
      <trkpt lat="43.17091" lon="6.37066">
        <ele>381.7</ele>
        <time>2012-04-01T11:24:14Z</time>
      </trkpt>
      <trkpt lat="43.17092" lon="6.37067">
        <ele>381.7</ele>
        <time>2012-04-01T11:24:15Z</time>
      </trkpt>
      <trkpt lat="43.17106" lon="6.37078">
        <ele>382.4</ele>
        <time>2012-04-01T11:24:32Z</time>
      </trkpt>
      <trkpt lat="43.17113" lon="6.37083">
        <ele>382.5</ele>
        <time>2012-04-01T11:24:41Z</time>
      </trkpt>
      <trkpt lat="43.17121" lon="6.37087">
        <ele>382.4</ele>
        <time>2012-04-01T11:24:49Z</time>
      </trkpt>
      <trkpt lat="43.17129" lon="6.37091">
        <ele>382.1</ele>
        <time>2012-04-01T11:24:58Z</time>
      </trkpt>
      <trkpt lat="43.17138" lon="6.37094">
        <ele>382.3</ele>
        <time>2012-04-01T11:25:07Z</time>
      </trkpt>
      <trkpt lat="43.17146" lon="6.37097">
        <ele>382.7</ele>
        <time>2012-04-01T11:25:18Z</time>
      </trkpt>
      <trkpt lat="43.17147" lon="6.37097">
        <ele>382.6</ele>
        <time>2012-04-01T11:25:19Z</time>
      </trkpt>
      <trkpt lat="43.17129" lon="6.37091">
        <ele>383.3</ele>
        <time>2012-04-01T11:26:17Z</time>
      </trkpt>
      <trkpt lat="43.17121" lon="6.37087">
        <ele>383.3</ele>
        <time>2012-04-01T11:26:29Z</time>
      </trkpt>
      <trkpt lat="43.1712" lon="6.37087">
        <ele>383.2</ele>
        <time>2012-04-01T11:26:30Z</time>
      </trkpt>
      <trkpt lat="43.17105" lon="6.37077">
        <ele>382.9</ele>
        <time>2012-04-01T11:26:48Z</time>
      </trkpt>
      <trkpt lat="43.17098" lon="6.37071">
        <ele>382.1</ele>
        <time>2012-04-01T11:26:58Z</time>
      </trkpt>
      <trkpt lat="43.17092" lon="6.37063">
        <ele>382</ele>
        <time>2012-04-01T11:27:08Z</time>
      </trkpt>
      <trkpt lat="43.17085" lon="6.37055">
        <ele>382.2</ele>
        <time>2012-04-01T11:27:18Z</time>
      </trkpt>
      <trkpt lat="43.17077" lon="6.3705">
        <ele>382.2</ele>
        <time>2012-04-01T11:27:30Z</time>
      </trkpt>
      <trkpt lat="43.17076" lon="6.3705">
        <ele>381.9</ele>
        <time>2012-04-01T11:27:31Z</time>
      </trkpt>
      <trkpt lat="43.17061" lon="6.37052">
        <ele>380.7</ele>
        <time>2012-04-01T11:27:47Z</time>
      </trkpt>
      <trkpt lat="43.17053" lon="6.37057">
        <ele>380.2</ele>
        <time>2012-04-01T11:27:55Z</time>
      </trkpt>
      <trkpt lat="43.17045" lon="6.3706">
        <ele>380.6</ele>
        <time>2012-04-01T11:28:03Z</time>
      </trkpt>
      <trkpt lat="43.17037" lon="6.37061">
        <ele>380.4</ele>
        <time>2012-04-01T11:28:12Z</time>
      </trkpt>
      <trkpt lat="43.17028" lon="6.37063">
        <ele>380.4</ele>
        <time>2012-04-01T11:28:21Z</time>
      </trkpt>
      <trkpt lat="43.1702" lon="6.37069">
        <ele>380.5</ele>
        <time>2012-04-01T11:28:29Z</time>
      </trkpt>
      <trkpt lat="43.17013" lon="6.37076">
        <ele>379.4</ele>
        <time>2012-04-01T11:28:37Z</time>
      </trkpt>
      <trkpt lat="43.17013" lon="6.37076">
        <ele>379.6</ele>
        <time>2012-04-01T11:28:38Z</time>
      </trkpt>
      <trkpt lat="43.17" lon="6.37091">
        <ele>379.1</ele>
        <time>2012-04-01T11:28:55Z</time>
      </trkpt>
      <trkpt lat="43.16993" lon="6.37098">
        <ele>378.6</ele>
        <time>2012-04-01T11:29:03Z</time>
      </trkpt>
      <trkpt lat="43.16987" lon="6.37105">
        <ele>378.3</ele>
        <time>2012-04-01T11:29:11Z</time>
      </trkpt>
      <trkpt lat="43.1698" lon="6.37113">
        <ele>378.6</ele>
        <time>2012-04-01T11:29:20Z</time>
      </trkpt>
      <trkpt lat="43.16973" lon="6.3712">
        <ele>379.1</ele>
        <time>2012-04-01T11:29:30Z</time>
      </trkpt>
      <trkpt lat="43.16965" lon="6.37124">
        <ele>380</ele>
        <time>2012-04-01T11:29:39Z</time>
      </trkpt>
      <trkpt lat="43.16964" lon="6.37125">
        <ele>380.1</ele>
        <time>2012-04-01T11:29:40Z</time>
      </trkpt>
      <trkpt lat="43.16948" lon="6.37123">
        <ele>379.9</ele>
        <time>2012-04-01T11:29:58Z</time>
      </trkpt>
      <trkpt lat="43.1694" lon="6.37121">
        <ele>379.6</ele>
        <time>2012-04-01T11:30:07Z</time>
      </trkpt>
      <trkpt lat="43.16932" lon="6.37127">
        <ele>380.3</ele>
        <time>2012-04-01T11:31:15Z</time>
      </trkpt>
      <trkpt lat="43.16932" lon="6.37127">
        <ele>380.1</ele>
        <time>2012-04-01T11:31:16Z</time>
      </trkpt>
      <trkpt lat="43.16936" lon="6.37138">
        <ele>377.6</ele>
        <time>2012-04-01T11:34:45Z</time>
      </trkpt>
      <trkpt lat="43.16936" lon="6.37161">
        <ele>373.8</ele>
        <time>2012-04-01T11:35:12Z</time>
      </trkpt>
      <trkpt lat="43.16944" lon="6.37156">
        <ele>371.4</ele>
        <time>2012-04-01T11:35:41Z</time>
      </trkpt>
      <trkpt lat="43.16952" lon="6.37151">
        <ele>369.2</ele>
        <time>2012-04-01T11:35:54Z</time>
      </trkpt>
      <trkpt lat="43.16952" lon="6.37151">
        <ele>368.7</ele>
        <time>2012-04-01T11:35:55Z</time>
      </trkpt>
      <trkpt lat="43.16969" lon="6.37147">
        <ele>364.7</ele>
        <time>2012-04-01T11:36:22Z</time>
      </trkpt>
      <trkpt lat="43.16966" lon="6.37158">
        <ele>361.7</ele>
        <time>2012-04-01T11:36:51Z</time>
      </trkpt>
      <trkpt lat="43.16975" lon="6.37159">
        <ele>360.2</ele>
        <time>2012-04-01T11:37:07Z</time>
      </trkpt>
      <trkpt lat="43.16975" lon="6.37159">
        <ele>360.2</ele>
        <time>2012-04-01T11:37:08Z</time>
      </trkpt>
      <trkpt lat="43.16991" lon="6.3715">
        <ele>356</ele>
        <time>2012-04-01T11:37:33Z</time>
      </trkpt>
      <trkpt lat="43.17" lon="6.37147">
        <ele>355.8</ele>
        <time>2012-04-01T11:37:45Z</time>
      </trkpt>
      <trkpt lat="43.17001" lon="6.37159">
        <ele>352</ele>
        <time>2012-04-01T11:38:40Z</time>
      </trkpt>
      <trkpt lat="43.17" lon="6.37159">
        <ele>351.8</ele>
        <time>2012-04-01T11:38:41Z</time>
      </trkpt>
      <trkpt lat="43.17018" lon="6.37157">
        <ele>344.3</ele>
        <time>2012-04-01T11:39:41Z</time>
      </trkpt>
      <trkpt lat="43.17019" lon="6.37157">
        <ele>344</ele>
        <time>2012-04-01T11:39:42Z</time>
      </trkpt>
      <trkpt lat="43.1701" lon="6.37179">
        <ele>338.2</ele>
        <time>2012-04-01T11:40:39Z</time>
      </trkpt>
      <trkpt lat="43.17018" lon="6.37181">
        <ele>336.7</ele>
        <time>2012-04-01T11:41:11Z</time>
      </trkpt>
      <trkpt lat="43.17019" lon="6.37181">
        <ele>336.8</ele>
        <time>2012-04-01T11:41:12Z</time>
      </trkpt>
      <trkpt lat="43.17036" lon="6.37178">
        <ele>334.3</ele>
        <time>2012-04-01T11:41:43Z</time>
      </trkpt>
      <trkpt lat="43.17032" lon="6.3719">
        <ele>329.1</ele>
        <time>2012-04-01T11:42:27Z</time>
      </trkpt>
      <trkpt lat="43.17032" lon="6.3719">
        <ele>329.1</ele>
        <time>2012-04-01T11:42:28Z</time>
      </trkpt>
      <trkpt lat="43.17033" lon="6.37206">
        <ele>323.1</ele>
        <time>2012-04-01T11:43:31Z</time>
      </trkpt>
      <trkpt lat="43.17034" lon="6.37205">
        <ele>322.9</ele>
        <time>2012-04-01T11:43:32Z</time>
      </trkpt>
      <trkpt lat="43.17051" lon="6.37208">
        <ele>320.4</ele>
        <time>2012-04-01T11:43:58Z</time>
      </trkpt>
      <trkpt lat="43.17046" lon="6.37218">
        <ele>316.2</ele>
        <time>2012-04-01T11:44:55Z</time>
      </trkpt>
      <trkpt lat="43.17045" lon="6.37219">
        <ele>315.9</ele>
        <time>2012-04-01T11:44:56Z</time>
      </trkpt>
      <trkpt lat="43.17035" lon="6.37236">
        <ele>313.4</ele>
        <time>2012-04-01T11:45:33Z</time>
      </trkpt>
      <trkpt lat="43.17027" lon="6.37241">
        <ele>312.9</ele>
        <time>2012-04-01T11:45:42Z</time>
      </trkpt>
      <trkpt lat="43.17025" lon="6.37253">
        <ele>311</ele>
        <time>2012-04-01T11:45:55Z</time>
      </trkpt>
      <trkpt lat="43.17021" lon="6.37264">
        <ele>310.1</ele>
        <time>2012-04-01T11:46:08Z</time>
      </trkpt>
      <trkpt lat="43.17021" lon="6.37264">
        <ele>309.8</ele>
        <time>2012-04-01T11:46:09Z</time>
      </trkpt>
      <trkpt lat="43.17038" lon="6.3726">
        <ele>304.3</ele>
        <time>2012-04-01T11:47:05Z</time>
      </trkpt>
      <trkpt lat="43.17036" lon="6.37272">
        <ele>300</ele>
        <time>2012-04-01T11:47:38Z</time>
      </trkpt>
      <trkpt lat="43.17037" lon="6.37272">
        <ele>300.1</ele>
        <time>2012-04-01T11:47:39Z</time>
      </trkpt>
      <trkpt lat="43.17041" lon="6.37283">
        <ele>296.4</ele>
        <time>2012-04-01T11:48:27Z</time>
      </trkpt>
      <trkpt lat="43.17049" lon="6.37278">
        <ele>294.8</ele>
        <time>2012-04-01T11:48:56Z</time>
      </trkpt>
      <trkpt lat="43.1705" lon="6.37278">
        <ele>294.8</ele>
        <time>2012-04-01T11:48:57Z</time>
      </trkpt>
      <trkpt lat="43.17065" lon="6.3728">
        <ele>293.6</ele>
        <time>2012-04-01T11:49:30Z</time>
      </trkpt>
      <trkpt lat="43.17073" lon="6.37274">
        <ele>293.3</ele>
        <time>2012-04-01T11:49:39Z</time>
      </trkpt>
      <trkpt lat="43.17079" lon="6.37281">
        <ele>291.5</ele>
        <time>2012-04-01T11:49:58Z</time>
      </trkpt>
      <trkpt lat="43.1708" lon="6.37282">
        <ele>291.4</ele>
        <time>2012-04-01T11:49:59Z</time>
      </trkpt>
      <trkpt lat="43.17091" lon="6.37293">
        <ele>288.9</ele>
        <time>2012-04-01T11:50:20Z</time>
      </trkpt>
      <trkpt lat="43.17095" lon="6.37305">
        <ele>287.2</ele>
        <time>2012-04-01T11:50:35Z</time>
      </trkpt>
      <trkpt lat="43.17099" lon="6.37315">
        <ele>287.1</ele>
        <time>2012-04-01T11:50:45Z</time>
      </trkpt>
      <trkpt lat="43.17107" lon="6.3732">
        <ele>285.4</ele>
        <time>2012-04-01T11:50:57Z</time>
      </trkpt>
      <trkpt lat="43.17113" lon="6.37328">
        <ele>283.9</ele>
        <time>2012-04-01T11:51:08Z</time>
      </trkpt>
      <trkpt lat="43.17114" lon="6.37329">
        <ele>283.8</ele>
        <time>2012-04-01T11:51:09Z</time>
      </trkpt>
      <trkpt lat="43.1712" lon="6.37349">
        <ele>282</ele>
        <time>2012-04-01T11:51:36Z</time>
      </trkpt>
      <trkpt lat="43.17124" lon="6.3736">
        <ele>280.1</ele>
        <time>2012-04-01T11:51:54Z</time>
      </trkpt>
      <trkpt lat="43.17126" lon="6.37371">
        <ele>278.7</ele>
        <time>2012-04-01T11:52:05Z</time>
      </trkpt>
      <trkpt lat="43.17134" lon="6.37376">
        <ele>277.9</ele>
        <time>2012-04-01T11:52:16Z</time>
      </trkpt>
      <trkpt lat="43.17134" lon="6.37377">
        <ele>278</ele>
        <time>2012-04-01T11:52:17Z</time>
      </trkpt>
      <trkpt lat="43.17146" lon="6.37393">
        <ele>274.6</ele>
        <time>2012-04-01T11:52:44Z</time>
      </trkpt>
      <trkpt lat="43.17153" lon="6.37399">
        <ele>274.1</ele>
        <time>2012-04-01T11:52:54Z</time>
      </trkpt>
      <trkpt lat="43.17159" lon="6.37409">
        <ele>272.1</ele>
        <time>2012-04-01T11:53:14Z</time>
      </trkpt>
      <trkpt lat="43.17154" lon="6.37419">
        <ele>269.1</ele>
        <time>2012-04-01T11:53:44Z</time>
      </trkpt>
      <trkpt lat="43.17153" lon="6.37419">
        <ele>268.8</ele>
        <time>2012-04-01T11:53:45Z</time>
      </trkpt>
      <trkpt lat="43.17158" lon="6.37438">
        <ele>263.9</ele>
        <time>2012-04-01T11:54:30Z</time>
      </trkpt>
      <trkpt lat="43.17165" lon="6.37444">
        <ele>262.2</ele>
        <time>2012-04-01T11:54:43Z</time>
      </trkpt>
      <trkpt lat="43.17173" lon="6.37451">
        <ele>260.1</ele>
        <time>2012-04-01T11:54:55Z</time>
      </trkpt>
      <trkpt lat="43.17173" lon="6.37451">
        <ele>260.3</ele>
        <time>2012-04-01T11:54:56Z</time>
      </trkpt>
      <trkpt lat="43.17184" lon="6.37466">
        <ele>256.9</ele>
        <time>2012-04-01T11:55:19Z</time>
      </trkpt>
      <trkpt lat="43.17193" lon="6.37469">
        <ele>257</ele>
        <time>2012-04-01T11:55:29Z</time>
      </trkpt>
      <trkpt lat="43.17201" lon="6.37471">
        <ele>256</ele>
        <time>2012-04-01T11:55:41Z</time>
      </trkpt>
      <trkpt lat="43.17208" lon="6.37477">
        <ele>255.1</ele>
        <time>2012-04-01T11:55:52Z</time>
      </trkpt>
      <trkpt lat="43.17217" lon="6.3748">
        <ele>253</ele>
        <time>2012-04-01T11:56:06Z</time>
      </trkpt>
      <trkpt lat="43.17218" lon="6.37481">
        <ele>252.5</ele>
        <time>2012-04-01T11:56:07Z</time>
      </trkpt>
      <trkpt lat="43.17233" lon="6.37488">
        <ele>251.5</ele>
        <time>2012-04-01T11:56:27Z</time>
      </trkpt>
      <trkpt lat="43.17234" lon="6.375">
        <ele>249.7</ele>
        <time>2012-04-01T11:56:38Z</time>
      </trkpt>
      <trkpt lat="43.17242" lon="6.37501">
        <ele>248.1</ele>
        <time>2012-04-01T11:56:49Z</time>
      </trkpt>
      <trkpt lat="43.17248" lon="6.3751">
        <ele>248</ele>
        <time>2012-04-01T11:57:00Z</time>
      </trkpt>
      <trkpt lat="43.17255" lon="6.37517">
        <ele>245.3</ele>
        <time>2012-04-01T11:57:15Z</time>
      </trkpt>
      <trkpt lat="43.17256" lon="6.37517">
        <ele>245.1</ele>
        <time>2012-04-01T11:57:16Z</time>
      </trkpt>
      <trkpt lat="43.17268" lon="6.37532">
        <ele>244.8</ele>
        <time>2012-04-01T11:57:44Z</time>
      </trkpt>
      <trkpt lat="43.17276" lon="6.37538">
        <ele>244.6</ele>
        <time>2012-04-01T11:59:15Z</time>
      </trkpt>
      <trkpt lat="43.17276" lon="6.37538">
        <ele>244.7</ele>
        <time>2012-04-01T11:59:16Z</time>
      </trkpt>
      <trkpt lat="43.17279" lon="6.3755">
        <ele>244.2</ele>
        <time>2012-04-01T12:00:45Z</time>
      </trkpt>
      <trkpt lat="43.17293" lon="6.37561">
        <ele>242.7</ele>
        <time>2012-04-01T12:01:13Z</time>
      </trkpt>
      <trkpt lat="43.17301" lon="6.37565">
        <ele>243.4</ele>
        <time>2012-04-01T12:01:25Z</time>
      </trkpt>
      <trkpt lat="43.17309" lon="6.37571">
        <ele>242.4</ele>
        <time>2012-04-01T12:01:36Z</time>
      </trkpt>
      <trkpt lat="43.17315" lon="6.37578">
        <ele>241</ele>
        <time>2012-04-01T12:01:46Z</time>
      </trkpt>
      <trkpt lat="43.17316" lon="6.37578">
        <ele>240.6</ele>
        <time>2012-04-01T12:01:47Z</time>
      </trkpt>
      <trkpt lat="43.17328" lon="6.37594">
        <ele>239.4</ele>
        <time>2012-04-01T12:02:03Z</time>
      </trkpt>
      <trkpt lat="43.17332" lon="6.37604">
        <ele>238.1</ele>
        <time>2012-04-01T12:02:11Z</time>
      </trkpt>
      <trkpt lat="43.17336" lon="6.37615">
        <ele>238.6</ele>
        <time>2012-04-01T12:02:22Z</time>
      </trkpt>
      <trkpt lat="43.17343" lon="6.37621">
        <ele>237.3</ele>
        <time>2012-04-01T12:02:31Z</time>
      </trkpt>
      <trkpt lat="43.1735" lon="6.3763">
        <ele>237.1</ele>
        <time>2012-04-01T12:02:42Z</time>
      </trkpt>
      <trkpt lat="43.17357" lon="6.37636">
        <ele>235.9</ele>
        <time>2012-04-01T12:02:50Z</time>
      </trkpt>
      <trkpt lat="43.17357" lon="6.37638">
        <ele>235.8</ele>
        <time>2012-04-01T12:02:51Z</time>
      </trkpt>
      <trkpt lat="43.17368" lon="6.37653">
        <ele>234.4</ele>
        <time>2012-04-01T12:03:10Z</time>
      </trkpt>
      <trkpt lat="43.17374" lon="6.37662">
        <ele>234.3</ele>
        <time>2012-04-01T12:03:22Z</time>
      </trkpt>
      <trkpt lat="43.1738" lon="6.37671">
        <ele>233.1</ele>
        <time>2012-04-01T12:03:35Z</time>
      </trkpt>
      <trkpt lat="43.17372" lon="6.37676">
        <ele>231.6</ele>
        <time>2012-04-01T12:03:51Z</time>
      </trkpt>
      <trkpt lat="43.17371" lon="6.37676">
        <ele>231.5</ele>
        <time>2012-04-01T12:03:52Z</time>
      </trkpt>
      <trkpt lat="43.17357" lon="6.37665">
        <ele>229.6</ele>
        <time>2012-04-01T12:04:15Z</time>
      </trkpt>
      <trkpt lat="43.17349" lon="6.3766">
        <ele>228.8</ele>
        <time>2012-04-01T12:04:28Z</time>
      </trkpt>
      <trkpt lat="43.17341" lon="6.37656">
        <ele>227.5</ele>
        <time>2012-04-01T12:04:40Z</time>
      </trkpt>
      <trkpt lat="43.17333" lon="6.37651">
        <ele>228.2</ele>
        <time>2012-04-01T12:04:54Z</time>
      </trkpt>
      <trkpt lat="43.17332" lon="6.37651">
        <ele>228.1</ele>
        <time>2012-04-01T12:04:55Z</time>
      </trkpt>
      <trkpt lat="43.17323" lon="6.37665">
        <ele>225.6</ele>
        <time>2012-04-01T12:05:28Z</time>
      </trkpt>
      <trkpt lat="43.1733" lon="6.37673">
        <ele>224</ele>
        <time>2012-04-01T12:05:40Z</time>
      </trkpt>
      <trkpt lat="43.17336" lon="6.37681">
        <ele>223.2</ele>
        <time>2012-04-01T12:05:50Z</time>
      </trkpt>
      <trkpt lat="43.17343" lon="6.37689">
        <ele>223.7</ele>
        <time>2012-04-01T12:06:01Z</time>
      </trkpt>
      <trkpt lat="43.17343" lon="6.3769">
        <ele>223.2</ele>
        <time>2012-04-01T12:06:02Z</time>
      </trkpt>
      <trkpt lat="43.17351" lon="6.3771">
        <ele>221.4</ele>
        <time>2012-04-01T12:06:22Z</time>
      </trkpt>
      <trkpt lat="43.17353" lon="6.37721">
        <ele>220.3</ele>
        <time>2012-04-01T12:06:31Z</time>
      </trkpt>
      <trkpt lat="43.17355" lon="6.37731">
        <ele>220.1</ele>
        <time>2012-04-01T12:06:40Z</time>
      </trkpt>
      <trkpt lat="43.17356" lon="6.37743">
        <ele>220.5</ele>
        <time>2012-04-01T12:06:50Z</time>
      </trkpt>
      <trkpt lat="43.17356" lon="6.37755">
        <ele>219.1</ele>
        <time>2012-04-01T12:07:03Z</time>
      </trkpt>
      <trkpt lat="43.17356" lon="6.37756">
        <ele>219.1</ele>
        <time>2012-04-01T12:07:04Z</time>
      </trkpt>
      <trkpt lat="43.17358" lon="6.37778">
        <ele>216.8</ele>
        <time>2012-04-01T12:07:25Z</time>
      </trkpt>
      <trkpt lat="43.17359" lon="6.37789">
        <ele>216.9</ele>
        <time>2012-04-01T12:07:35Z</time>
      </trkpt>
      <trkpt lat="43.1736" lon="6.37801">
        <ele>216.5</ele>
        <time>2012-04-01T12:07:45Z</time>
      </trkpt>
      <trkpt lat="43.1736" lon="6.37812">
        <ele>215.7</ele>
        <time>2012-04-01T12:07:55Z</time>
      </trkpt>
      <trkpt lat="43.17361" lon="6.37824">
        <ele>215.4</ele>
        <time>2012-04-01T12:08:19Z</time>
      </trkpt>
      <trkpt lat="43.17361" lon="6.37825">
        <ele>215.2</ele>
        <time>2012-04-01T12:08:20Z</time>
      </trkpt>
      <trkpt lat="43.17364" lon="6.37847">
        <ele>214</ele>
        <time>2012-04-01T12:08:44Z</time>
      </trkpt>
      <trkpt lat="43.17364" lon="6.37859">
        <ele>213.5</ele>
        <time>2012-04-01T12:08:57Z</time>
      </trkpt>
      <trkpt lat="43.17366" lon="6.37871">
        <ele>212.7</ele>
        <time>2012-04-01T12:09:10Z</time>
      </trkpt>
      <trkpt lat="43.1737" lon="6.37882">
        <ele>212.5</ele>
        <time>2012-04-01T12:09:24Z</time>
      </trkpt>
      <trkpt lat="43.1737" lon="6.37883">
        <ele>212.5</ele>
        <time>2012-04-01T12:09:25Z</time>
      </trkpt>
      <trkpt lat="43.17376" lon="6.37904">
        <ele>211.8</ele>
        <time>2012-04-01T12:09:53Z</time>
      </trkpt>
      <trkpt lat="43.17379" lon="6.37915">
        <ele>211.1</ele>
        <time>2012-04-01T12:10:03Z</time>
      </trkpt>
      <trkpt lat="43.17382" lon="6.37926">
        <ele>211.6</ele>
        <time>2012-04-01T12:10:15Z</time>
      </trkpt>
      <trkpt lat="43.17386" lon="6.37937">
        <ele>210.7</ele>
        <time>2012-04-01T12:10:28Z</time>
      </trkpt>
      <trkpt lat="43.17386" lon="6.37938">
        <ele>210.6</ele>
        <time>2012-04-01T12:10:29Z</time>
      </trkpt>
      <trkpt lat="43.17393" lon="6.37958">
        <ele>210.4</ele>
        <time>2012-04-01T12:10:51Z</time>
      </trkpt>
      <trkpt lat="43.17396" lon="6.37968">
        <ele>210.2</ele>
        <time>2012-04-01T12:11:01Z</time>
      </trkpt>
      <trkpt lat="43.17401" lon="6.37977">
        <ele>210.4</ele>
        <time>2012-04-01T12:11:12Z</time>
      </trkpt>
      <trkpt lat="43.17407" lon="6.37986">
        <ele>209.9</ele>
        <time>2012-04-01T12:11:23Z</time>
      </trkpt>
      <trkpt lat="43.17414" lon="6.37992">
        <ele>209.9</ele>
        <time>2012-04-01T12:11:35Z</time>
      </trkpt>
      <trkpt lat="43.17415" lon="6.37993">
        <ele>209.9</ele>
        <time>2012-04-01T12:11:36Z</time>
      </trkpt>
      <trkpt lat="43.17427" lon="6.38007">
        <ele>209.9</ele>
        <time>2012-04-01T12:12:11Z</time>
      </trkpt>
      <trkpt lat="43.17435" lon="6.38012">
        <ele>209.5</ele>
        <time>2012-04-01T12:12:28Z</time>
      </trkpt>
      <trkpt lat="43.17443" lon="6.38018">
        <ele>209</ele>
        <time>2012-04-01T12:12:41Z</time>
      </trkpt>
      <trkpt lat="43.17443" lon="6.38019">
        <ele>209.1</ele>
        <time>2012-04-01T12:12:42Z</time>
      </trkpt>
      <trkpt lat="43.17458" lon="6.38028">
        <ele>208.1</ele>
        <time>2012-04-01T12:13:01Z</time>
      </trkpt>
      <trkpt lat="43.17466" lon="6.38035">
        <ele>207.3</ele>
        <time>2012-04-01T12:13:12Z</time>
      </trkpt>
      <trkpt lat="43.17473" lon="6.38042">
        <ele>206.4</ele>
        <time>2012-04-01T12:13:24Z</time>
      </trkpt>
      <trkpt lat="43.17477" lon="6.38053">
        <ele>205.9</ele>
        <time>2012-04-01T12:13:41Z</time>
      </trkpt>
      <trkpt lat="43.17477" lon="6.38064">
        <ele>205</ele>
        <time>2012-04-01T12:14:03Z</time>
      </trkpt>
      <trkpt lat="43.17477" lon="6.38065">
        <ele>205.1</ele>
        <time>2012-04-01T12:14:04Z</time>
      </trkpt>
      <trkpt lat="43.17478" lon="6.38087">
        <ele>204.5</ele>
        <time>2012-04-01T12:14:25Z</time>
      </trkpt>
      <trkpt lat="43.17479" lon="6.38098">
        <ele>203.5</ele>
        <time>2012-04-01T12:14:33Z</time>
      </trkpt>
      <trkpt lat="43.1748" lon="6.38109">
        <ele>203.3</ele>
        <time>2012-04-01T12:14:42Z</time>
      </trkpt>
      <trkpt lat="43.1748" lon="6.38121">
        <ele>203.7</ele>
        <time>2012-04-01T12:14:52Z</time>
      </trkpt>
      <trkpt lat="43.17482" lon="6.38133">
        <ele>201.9</ele>
        <time>2012-04-01T12:15:03Z</time>
      </trkpt>
      <trkpt lat="43.17487" lon="6.38143">
        <ele>201.8</ele>
        <time>2012-04-01T12:15:14Z</time>
      </trkpt>
      <trkpt lat="43.17488" lon="6.38144">
        <ele>202.1</ele>
        <time>2012-04-01T12:15:15Z</time>
      </trkpt>
      <trkpt lat="43.17497" lon="6.38161">
        <ele>201.7</ele>
        <time>2012-04-01T12:15:34Z</time>
      </trkpt>
      <trkpt lat="43.17503" lon="6.3817">
        <ele>202.3</ele>
        <time>2012-04-01T12:15:42Z</time>
      </trkpt>
      <trkpt lat="43.17511" lon="6.38175">
        <ele>201.5</ele>
        <time>2012-04-01T12:15:53Z</time>
      </trkpt>
      <trkpt lat="43.17518" lon="6.38178">
        <ele>201.9</ele>
        <time>2012-04-01T12:16:03Z</time>
      </trkpt>
      <trkpt lat="43.17526" lon="6.38184">
        <ele>202</ele>
        <time>2012-04-01T12:16:12Z</time>
      </trkpt>
      <trkpt lat="43.17533" lon="6.3819">
        <ele>200.9</ele>
        <time>2012-04-01T12:16:24Z</time>
      </trkpt>
      <trkpt lat="43.17534" lon="6.38191">
        <ele>201</ele>
        <time>2012-04-01T12:16:25Z</time>
      </trkpt>
      <trkpt lat="43.17548" lon="6.38202">
        <ele>201.5</ele>
        <time>2012-04-01T12:16:44Z</time>
      </trkpt>
      <trkpt lat="43.17556" lon="6.38206">
        <ele>201</ele>
        <time>2012-04-01T12:17:03Z</time>
      </trkpt>
      <trkpt lat="43.17565" lon="6.3821">
        <ele>201.3</ele>
        <time>2012-04-01T12:17:18Z</time>
      </trkpt>
      <trkpt lat="43.17573" lon="6.38215">
        <ele>200.7</ele>
        <time>2012-04-01T12:17:36Z</time>
      </trkpt>
      <trkpt lat="43.17574" lon="6.38215">
        <ele>200.7</ele>
        <time>2012-04-01T12:17:37Z</time>
      </trkpt>
      <trkpt lat="43.17589" lon="6.38223">
        <ele>199.8</ele>
        <time>2012-04-01T12:17:59Z</time>
      </trkpt>
      <trkpt lat="43.17595" lon="6.38231">
        <ele>199.6</ele>
        <time>2012-04-01T12:18:11Z</time>
      </trkpt>
      <trkpt lat="43.17603" lon="6.38237">
        <ele>199.1</ele>
        <time>2012-04-01T12:18:22Z</time>
      </trkpt>
      <trkpt lat="43.17611" lon="6.38241">
        <ele>199.1</ele>
        <time>2012-04-01T12:18:32Z</time>
      </trkpt>
      <trkpt lat="43.17618" lon="6.38246">
        <ele>198.6</ele>
        <time>2012-04-01T12:18:46Z</time>
      </trkpt>
      <trkpt lat="43.17619" lon="6.38246">
        <ele>198.6</ele>
        <time>2012-04-01T12:18:47Z</time>
      </trkpt>
      <trkpt lat="43.17634" lon="6.38255">
        <ele>198.4</ele>
        <time>2012-04-01T12:19:06Z</time>
      </trkpt>
      <trkpt lat="43.17642" lon="6.38261">
        <ele>198.6</ele>
        <time>2012-04-01T12:19:16Z</time>
      </trkpt>
      <trkpt lat="43.1765" lon="6.38263">
        <ele>198.2</ele>
        <time>2012-04-01T12:19:28Z</time>
      </trkpt>
      <trkpt lat="43.17657" lon="6.3827">
        <ele>196.7</ele>
        <time>2012-04-01T12:19:53Z</time>
      </trkpt>
      <trkpt lat="43.17658" lon="6.38271">
        <ele>196.5</ele>
        <time>2012-04-01T12:19:54Z</time>
      </trkpt>
      <trkpt lat="43.17672" lon="6.3828">
        <ele>197.5</ele>
        <time>2012-04-01T12:20:13Z</time>
      </trkpt>
      <trkpt lat="43.1768" lon="6.38284">
        <ele>196.7</ele>
        <time>2012-04-01T12:20:25Z</time>
      </trkpt>
      <trkpt lat="43.17687" lon="6.38291">
        <ele>196</ele>
        <time>2012-04-01T12:20:40Z</time>
      </trkpt>
      <trkpt lat="43.17695" lon="6.38294">
        <ele>195.5</ele>
        <time>2012-04-01T12:20:50Z</time>
      </trkpt>
      <trkpt lat="43.17702" lon="6.38299">
        <ele>195.3</ele>
        <time>2012-04-01T12:20:59Z</time>
      </trkpt>
      <trkpt lat="43.17703" lon="6.383">
        <ele>195.2</ele>
        <time>2012-04-01T12:21:00Z</time>
      </trkpt>
      <trkpt lat="43.17719" lon="6.38304">
        <ele>195.3</ele>
        <time>2012-04-01T12:21:20Z</time>
      </trkpt>
      <trkpt lat="43.17727" lon="6.38301">
        <ele>195</ele>
        <time>2012-04-01T12:21:33Z</time>
      </trkpt>
      <trkpt lat="43.17735" lon="6.38296">
        <ele>194.8</ele>
        <time>2012-04-01T12:21:46Z</time>
      </trkpt>
      <trkpt lat="43.17743" lon="6.3829">
        <ele>194.4</ele>
        <time>2012-04-01T12:21:58Z</time>
      </trkpt>
      <trkpt lat="43.17751" lon="6.38285">
        <ele>194.5</ele>
        <time>2012-04-01T12:22:09Z</time>
      </trkpt>
      <trkpt lat="43.17752" lon="6.38284">
        <ele>194.4</ele>
        <time>2012-04-01T12:22:10Z</time>
      </trkpt>
      <trkpt lat="43.17767" lon="6.38275">
        <ele>193.4</ele>
        <time>2012-04-01T12:22:33Z</time>
      </trkpt>
      <trkpt lat="43.17775" lon="6.38275">
        <ele>193.5</ele>
        <time>2012-04-01T12:22:42Z</time>
      </trkpt>
      <trkpt lat="43.17784" lon="6.38278">
        <ele>192.8</ele>
        <time>2012-04-01T12:22:56Z</time>
      </trkpt>
      <trkpt lat="43.17792" lon="6.38282">
        <ele>192.5</ele>
        <time>2012-04-01T12:23:08Z</time>
      </trkpt>
      <trkpt lat="43.178" lon="6.38284">
        <ele>192.2</ele>
        <time>2012-04-01T12:23:23Z</time>
      </trkpt>
      <trkpt lat="43.17801" lon="6.38284">
        <ele>192.2</ele>
        <time>2012-04-01T12:23:24Z</time>
      </trkpt>
      <trkpt lat="43.17817" lon="6.3829">
        <ele>192.4</ele>
        <time>2012-04-01T12:23:43Z</time>
      </trkpt>
      <trkpt lat="43.17825" lon="6.38291">
        <ele>191.9</ele>
        <time>2012-04-01T12:23:54Z</time>
      </trkpt>
      <trkpt lat="43.17833" lon="6.38291">
        <ele>192.3</ele>
        <time>2012-04-01T12:24:12Z</time>
      </trkpt>
      <trkpt lat="43.17842" lon="6.38288">
        <ele>191.9</ele>
        <time>2012-04-01T12:24:24Z</time>
      </trkpt>
      <trkpt lat="43.17842" lon="6.38288">
        <ele>191.8</ele>
        <time>2012-04-01T12:24:25Z</time>
      </trkpt>
      <trkpt lat="43.17858" lon="6.38279">
        <ele>191.4</ele>
        <time>2012-04-01T12:24:45Z</time>
      </trkpt>
      <trkpt lat="43.17867" lon="6.38277">
        <ele>191.6</ele>
        <time>2012-04-01T12:24:56Z</time>
      </trkpt>
      <trkpt lat="43.17874" lon="6.38272">
        <ele>191.8</ele>
        <time>2012-04-01T12:25:08Z</time>
      </trkpt>
      <trkpt lat="43.17883" lon="6.38271">
        <ele>191.6</ele>
        <time>2012-04-01T12:25:20Z</time>
      </trkpt>
      <trkpt lat="43.17891" lon="6.38269">
        <ele>191.3</ele>
        <time>2012-04-01T12:25:29Z</time>
      </trkpt>
      <trkpt lat="43.17892" lon="6.38269">
        <ele>191.3</ele>
        <time>2012-04-01T12:25:30Z</time>
      </trkpt>
      <trkpt lat="43.17908" lon="6.38271">
        <ele>190.8</ele>
        <time>2012-04-01T12:25:54Z</time>
      </trkpt>
      <trkpt lat="43.17916" lon="6.38273">
        <ele>191.2</ele>
        <time>2012-04-01T12:26:05Z</time>
      </trkpt>
      <trkpt lat="43.17924" lon="6.38276">
        <ele>190.6</ele>
        <time>2012-04-01T12:26:14Z</time>
      </trkpt>
      <trkpt lat="43.17933" lon="6.38278">
        <ele>190.8</ele>
        <time>2012-04-01T12:26:23Z</time>
      </trkpt>
      <trkpt lat="43.17941" lon="6.38279">
        <ele>190.9</ele>
        <time>2012-04-01T12:26:32Z</time>
      </trkpt>
      <trkpt lat="43.17942" lon="6.38279">
        <ele>191.1</ele>
        <time>2012-04-01T12:26:33Z</time>
      </trkpt>
      <trkpt lat="43.17945" lon="6.38291">
        <ele>190.6</ele>
        <time>2012-04-01T12:27:38Z</time>
      </trkpt>
      <trkpt lat="43.17955" lon="6.38293">
        <ele>190.2</ele>
        <time>2012-04-01T12:30:50Z</time>
      </trkpt>
      <trkpt lat="43.1797" lon="6.38296">
        <ele>190.6</ele>
        <time>2012-04-01T12:31:13Z</time>
      </trkpt>
      <trkpt lat="43.17978" lon="6.383">
        <ele>189.9</ele>
        <time>2012-04-01T12:31:21Z</time>
      </trkpt>
      <trkpt lat="43.17985" lon="6.38307">
        <ele>189.9</ele>
        <time>2012-04-01T12:31:30Z</time>
      </trkpt>
      <trkpt lat="43.17992" lon="6.38315">
        <ele>190.6</ele>
        <time>2012-04-01T12:31:39Z</time>
      </trkpt>
      <trkpt lat="43.17998" lon="6.38322">
        <ele>189.8</ele>
        <time>2012-04-01T12:31:49Z</time>
      </trkpt>
      <trkpt lat="43.18006" lon="6.38327">
        <ele>190.1</ele>
        <time>2012-04-01T12:32:00Z</time>
      </trkpt>
      <trkpt lat="43.18007" lon="6.38327">
        <ele>189.7</ele>
        <time>2012-04-01T12:32:01Z</time>
      </trkpt>
      <trkpt lat="43.18019" lon="6.38342">
        <ele>189.4</ele>
        <time>2012-04-01T12:32:18Z</time>
      </trkpt>
      <trkpt lat="43.18026" lon="6.3835">
        <ele>189.2</ele>
        <time>2012-04-01T12:32:27Z</time>
      </trkpt>
      <trkpt lat="43.18031" lon="6.38358">
        <ele>188.5</ele>
        <time>2012-04-01T12:32:35Z</time>
      </trkpt>
      <trkpt lat="43.18038" lon="6.38366">
        <ele>188.9</ele>
        <time>2012-04-01T12:32:44Z</time>
      </trkpt>
      <trkpt lat="43.18044" lon="6.38374">
        <ele>188.7</ele>
        <time>2012-04-01T12:32:54Z</time>
      </trkpt>
      <trkpt lat="43.1805" lon="6.38383">
        <ele>188.9</ele>
        <time>2012-04-01T12:33:02Z</time>
      </trkpt>
      <trkpt lat="43.18051" lon="6.38384">
        <ele>189.1</ele>
        <time>2012-04-01T12:33:03Z</time>
      </trkpt>
      <trkpt lat="43.18062" lon="6.38398">
        <ele>188.1</ele>
        <time>2012-04-01T12:33:15Z</time>
      </trkpt>
      <trkpt lat="43.18066" lon="6.38407">
        <ele>188.5</ele>
        <time>2012-04-01T12:33:22Z</time>
      </trkpt>
      <trkpt lat="43.1807" lon="6.38416">
        <ele>187.7</ele>
        <time>2012-04-01T12:33:29Z</time>
      </trkpt>
      <trkpt lat="43.18076" lon="6.38424">
        <ele>187.5</ele>
        <time>2012-04-01T12:33:38Z</time>
      </trkpt>
      <trkpt lat="43.18082" lon="6.38431">
        <ele>186.9</ele>
        <time>2012-04-01T12:33:47Z</time>
      </trkpt>
      <trkpt lat="43.18088" lon="6.3844">
        <ele>187</ele>
        <time>2012-04-01T12:33:55Z</time>
      </trkpt>
      <trkpt lat="43.18093" lon="6.3845">
        <ele>186.9</ele>
        <time>2012-04-01T12:34:04Z</time>
      </trkpt>
      <trkpt lat="43.18093" lon="6.3845">
        <ele>186.9</ele>
        <time>2012-04-01T12:34:05Z</time>
      </trkpt>
      <trkpt lat="43.18104" lon="6.38469">
        <ele>186.6</ele>
        <time>2012-04-01T12:34:41Z</time>
      </trkpt>
      <trkpt lat="43.1811" lon="6.38476">
        <ele>186.4</ele>
        <time>2012-04-01T12:35:05Z</time>
      </trkpt>
      <trkpt lat="43.18111" lon="6.38477">
        <ele>186.3</ele>
        <time>2012-04-01T12:35:06Z</time>
      </trkpt>
      <trkpt lat="43.18122" lon="6.38493">
        <ele>186.3</ele>
        <time>2012-04-01T12:35:54Z</time>
      </trkpt>
      <trkpt lat="43.18128" lon="6.38501">
        <ele>186.4</ele>
        <time>2012-04-01T12:36:03Z</time>
      </trkpt>
      <trkpt lat="43.18134" lon="6.3851">
        <ele>185.7</ele>
        <time>2012-04-01T12:36:12Z</time>
      </trkpt>
      <trkpt lat="43.18135" lon="6.38511">
        <ele>185.9</ele>
        <time>2012-04-01T12:36:13Z</time>
      </trkpt>
      <trkpt lat="43.18142" lon="6.38532">
        <ele>186</ele>
        <time>2012-04-01T12:36:33Z</time>
      </trkpt>
      <trkpt lat="43.18143" lon="6.38543">
        <ele>185.9</ele>
        <time>2012-04-01T12:36:43Z</time>
      </trkpt>
      <trkpt lat="43.18143" lon="6.38555">
        <ele>185.9</ele>
        <time>2012-04-01T12:36:51Z</time>
      </trkpt>
      <trkpt lat="43.18143" lon="6.38566">
        <ele>185.6</ele>
        <time>2012-04-01T12:36:59Z</time>
      </trkpt>
      <trkpt lat="43.1814" lon="6.38577">
        <ele>185.9</ele>
        <time>2012-04-01T12:37:07Z</time>
      </trkpt>
      <trkpt lat="43.18135" lon="6.38587">
        <ele>185.9</ele>
        <time>2012-04-01T12:37:16Z</time>
      </trkpt>
      <trkpt lat="43.18135" lon="6.38588">
        <ele>186</ele>
        <time>2012-04-01T12:37:17Z</time>
      </trkpt>
      <trkpt lat="43.18125" lon="6.38607">
        <ele>185.1</ele>
        <time>2012-04-01T12:37:34Z</time>
      </trkpt>
      <trkpt lat="43.1813" lon="6.38616">
        <ele>185.4</ele>
        <time>2012-04-01T12:37:43Z</time>
      </trkpt>
      <trkpt lat="43.18136" lon="6.38625">
        <ele>186.6</ele>
        <time>2012-04-01T12:37:52Z</time>
      </trkpt>
      <trkpt lat="43.18143" lon="6.38632">
        <ele>185.7</ele>
        <time>2012-04-01T12:38:00Z</time>
      </trkpt>
      <trkpt lat="43.1815" lon="6.38639">
        <ele>185.1</ele>
        <time>2012-04-01T12:38:09Z</time>
      </trkpt>
      <trkpt lat="43.18157" lon="6.38646">
        <ele>185.4</ele>
        <time>2012-04-01T12:38:17Z</time>
      </trkpt>
      <trkpt lat="43.18157" lon="6.38647">
        <ele>185.5</ele>
        <time>2012-04-01T12:38:18Z</time>
      </trkpt>
      <trkpt lat="43.18169" lon="6.38662">
        <ele>185.9</ele>
        <time>2012-04-01T12:38:34Z</time>
      </trkpt>
      <trkpt lat="43.18176" lon="6.3867">
        <ele>185.7</ele>
        <time>2012-04-01T12:38:44Z</time>
      </trkpt>
      <trkpt lat="43.18183" lon="6.38676">
        <ele>185.3</ele>
        <time>2012-04-01T12:38:53Z</time>
      </trkpt>
      <trkpt lat="43.18189" lon="6.38685">
        <ele>185.6</ele>
        <time>2012-04-01T12:39:01Z</time>
      </trkpt>
      <trkpt lat="43.18195" lon="6.38694">
        <ele>185.7</ele>
        <time>2012-04-01T12:39:09Z</time>
      </trkpt>
      <trkpt lat="43.18201" lon="6.38702">
        <ele>185.4</ele>
        <time>2012-04-01T12:39:17Z</time>
      </trkpt>
      <trkpt lat="43.18206" lon="6.38709">
        <ele>185.2</ele>
        <time>2012-04-01T12:39:24Z</time>
      </trkpt>
      <trkpt lat="43.18207" lon="6.38711">
        <ele>185.2</ele>
        <time>2012-04-01T12:39:25Z</time>
      </trkpt>
      <trkpt lat="43.18217" lon="6.38728">
        <ele>185.2</ele>
        <time>2012-04-01T12:39:41Z</time>
      </trkpt>
      <trkpt lat="43.18223" lon="6.38737">
        <ele>185.3</ele>
        <time>2012-04-01T12:39:50Z</time>
      </trkpt>
      <trkpt lat="43.1823" lon="6.38743">
        <ele>184.2</ele>
        <time>2012-04-01T12:39:57Z</time>
      </trkpt>
      <trkpt lat="43.18239" lon="6.3874">
        <ele>183.4</ele>
        <time>2012-04-01T12:40:06Z</time>
      </trkpt>
      <trkpt lat="43.18245" lon="6.38733">
        <ele>182.8</ele>
        <time>2012-04-01T12:40:16Z</time>
      </trkpt>
      <trkpt lat="43.18253" lon="6.38728">
        <ele>182.1</ele>
        <time>2012-04-01T12:40:25Z</time>
      </trkpt>
      <trkpt lat="43.18254" lon="6.38727">
        <ele>181.9</ele>
        <time>2012-04-01T12:40:26Z</time>
      </trkpt>
      <trkpt lat="43.18269" lon="6.38723">
        <ele>181.4</ele>
        <time>2012-04-01T12:40:42Z</time>
      </trkpt>
      <trkpt lat="43.18277" lon="6.38718">
        <ele>180.9</ele>
        <time>2012-04-01T12:40:51Z</time>
      </trkpt>
      <trkpt lat="43.18284" lon="6.38712">
        <ele>180</ele>
        <time>2012-04-01T12:41:01Z</time>
      </trkpt>
      <trkpt lat="43.18289" lon="6.38701">
        <ele>179</ele>
        <time>2012-04-01T12:41:11Z</time>
      </trkpt>
      <trkpt lat="43.18291" lon="6.38691">
        <ele>178.9</ele>
        <time>2012-04-01T12:41:20Z</time>
      </trkpt>
      <trkpt lat="43.18294" lon="6.38679">
        <ele>177.9</ele>
        <time>2012-04-01T12:41:28Z</time>
      </trkpt>
      <trkpt lat="43.18295" lon="6.38678">
        <ele>177.5</ele>
        <time>2012-04-01T12:41:29Z</time>
      </trkpt>
      <trkpt lat="43.18297" lon="6.38657">
        <ele>175.3</ele>
        <time>2012-04-01T12:41:44Z</time>
      </trkpt>
      <trkpt lat="43.18295" lon="6.38645">
        <ele>175.4</ele>
        <time>2012-04-01T12:41:55Z</time>
      </trkpt>
      <trkpt lat="43.18295" lon="6.38634">
        <ele>174.6</ele>
        <time>2012-04-01T12:42:04Z</time>
      </trkpt>
      <trkpt lat="43.18303" lon="6.38636">
        <ele>173.4</ele>
        <time>2012-04-01T12:42:19Z</time>
      </trkpt>
      <trkpt lat="43.18308" lon="6.38645">
        <ele>172.1</ele>
        <time>2012-04-01T12:42:31Z</time>
      </trkpt>
      <trkpt lat="43.18309" lon="6.38646">
        <ele>172.1</ele>
        <time>2012-04-01T12:42:32Z</time>
      </trkpt>
      <trkpt lat="43.18319" lon="6.38663">
        <ele>170.2</ele>
        <time>2012-04-01T12:42:48Z</time>
      </trkpt>
      <trkpt lat="43.18325" lon="6.38672">
        <ele>169.3</ele>
        <time>2012-04-01T12:42:56Z</time>
      </trkpt>
      <trkpt lat="43.18329" lon="6.3868">
        <ele>168.6</ele>
        <time>2012-04-01T12:43:02Z</time>
      </trkpt>
      <trkpt lat="43.18335" lon="6.38688">
        <ele>167.7</ele>
        <time>2012-04-01T12:43:09Z</time>
      </trkpt>
      <trkpt lat="43.18343" lon="6.38692">
        <ele>167.1</ele>
        <time>2012-04-01T12:43:19Z</time>
      </trkpt>
      <trkpt lat="43.18349" lon="6.38699">
        <ele>166.5</ele>
        <time>2012-04-01T12:43:55Z</time>
      </trkpt>
      <trkpt lat="43.1835" lon="6.387">
        <ele>166.5</ele>
        <time>2012-04-01T12:43:56Z</time>
      </trkpt>
      <trkpt lat="43.18355" lon="6.3872">
        <ele>163.8</ele>
        <time>2012-04-01T12:44:32Z</time>
      </trkpt>
      <trkpt lat="43.18362" lon="6.38728">
        <ele>163.6</ele>
        <time>2012-04-01T12:44:41Z</time>
      </trkpt>
      <trkpt lat="43.18368" lon="6.38734">
        <ele>162.2</ele>
        <time>2012-04-01T12:44:51Z</time>
      </trkpt>
      <trkpt lat="43.18377" lon="6.38737">
        <ele>161.6</ele>
        <time>2012-04-01T12:45:00Z</time>
      </trkpt>
      <trkpt lat="43.18377" lon="6.38738">
        <ele>161.6</ele>
        <time>2012-04-01T12:45:01Z</time>
      </trkpt>
      <trkpt lat="43.1839" lon="6.3875">
        <ele>160</ele>
        <time>2012-04-01T12:45:23Z</time>
      </trkpt>
      <trkpt lat="43.18395" lon="6.3876">
        <ele>158.9</ele>
        <time>2012-04-01T12:45:34Z</time>
      </trkpt>
      <trkpt lat="43.184" lon="6.38769">
        <ele>158.6</ele>
        <time>2012-04-01T12:45:44Z</time>
      </trkpt>
      <trkpt lat="43.18406" lon="6.38778">
        <ele>157.3</ele>
        <time>2012-04-01T12:45:53Z</time>
      </trkpt>
      <trkpt lat="43.18412" lon="6.38786">
        <ele>156.4</ele>
        <time>2012-04-01T12:46:02Z</time>
      </trkpt>
      <trkpt lat="43.18412" lon="6.38787">
        <ele>156.3</ele>
        <time>2012-04-01T12:46:03Z</time>
      </trkpt>
      <trkpt lat="43.18422" lon="6.38803">
        <ele>155</ele>
        <time>2012-04-01T12:46:20Z</time>
      </trkpt>
      <trkpt lat="43.18428" lon="6.38813">
        <ele>154.3</ele>
        <time>2012-04-01T12:46:30Z</time>
      </trkpt>
      <trkpt lat="43.1843" lon="6.38824">
        <ele>153.4</ele>
        <time>2012-04-01T12:46:41Z</time>
      </trkpt>
      <trkpt lat="43.18435" lon="6.38835">
        <ele>152.7</ele>
        <time>2012-04-01T12:46:51Z</time>
      </trkpt>
      <trkpt lat="43.18438" lon="6.38846">
        <ele>152.5</ele>
        <time>2012-04-01T12:47:04Z</time>
      </trkpt>
      <trkpt lat="43.18438" lon="6.38846">
        <ele>152.7</ele>
        <time>2012-04-01T12:47:05Z</time>
      </trkpt>
      <trkpt lat="43.18441" lon="6.38853">
        <ele>151.2</ele>
        <time>2012-04-01T12:49:41Z</time>
      </trkpt>
      <trkpt lat="43.18441" lon="6.38853">
        <ele>151.3</ele>
        <time>2012-04-01T12:49:42Z</time>
      </trkpt>
      <trkpt lat="43.1845" lon="6.38855">
        <ele>151.4</ele>
        <time>2012-04-01T12:51:22Z</time>
      </trkpt>
      <trkpt lat="43.18443" lon="6.38864">
        <ele>152</ele>
        <time>2012-04-01T12:53:58Z</time>
      </trkpt>
      <trkpt lat="43.18457" lon="6.38876">
        <ele>154</ele>
        <time>2012-04-01T12:54:34Z</time>
      </trkpt>
      <trkpt lat="43.18465" lon="6.38882">
        <ele>152.8</ele>
        <time>2012-04-01T12:54:44Z</time>
      </trkpt>
      <trkpt lat="43.18473" lon="6.38881">
        <ele>152.6</ele>
        <time>2012-04-01T12:54:58Z</time>
      </trkpt>
      <trkpt lat="43.18474" lon="6.38881">
        <ele>152.4</ele>
        <time>2012-04-01T12:54:59Z</time>
      </trkpt>
      <trkpt lat="43.18489" lon="6.38879">
        <ele>152.9</ele>
        <time>2012-04-01T12:55:23Z</time>
      </trkpt>
      <trkpt lat="43.18495" lon="6.38889">
        <ele>152</ele>
        <time>2012-04-01T12:55:36Z</time>
      </trkpt>
      <trkpt lat="43.18499" lon="6.38898">
        <ele>152</ele>
        <time>2012-04-01T12:55:48Z</time>
      </trkpt>
      <trkpt lat="43.18504" lon="6.38909">
        <ele>151.8</ele>
        <time>2012-04-01T12:55:59Z</time>
      </trkpt>
      <trkpt lat="43.18504" lon="6.3891">
        <ele>151.9</ele>
        <time>2012-04-01T12:56:00Z</time>
      </trkpt>
      <trkpt lat="43.18515" lon="6.38927">
        <ele>153.7</ele>
        <time>2012-04-01T12:56:23Z</time>
      </trkpt>
      <trkpt lat="43.18521" lon="6.38935">
        <ele>153.8</ele>
        <time>2012-04-01T12:56:34Z</time>
      </trkpt>
      <trkpt lat="43.18527" lon="6.38944">
        <ele>154.2</ele>
        <time>2012-04-01T12:56:43Z</time>
      </trkpt>
      <trkpt lat="43.18531" lon="6.38954">
        <ele>155.3</ele>
        <time>2012-04-01T12:56:53Z</time>
      </trkpt>
      <trkpt lat="43.18536" lon="6.38964">
        <ele>155.4</ele>
        <time>2012-04-01T12:57:03Z</time>
      </trkpt>
      <trkpt lat="43.18536" lon="6.38965">
        <ele>155.4</ele>
        <time>2012-04-01T12:57:04Z</time>
      </trkpt>
      <trkpt lat="43.18545" lon="6.38984">
        <ele>156.4</ele>
        <time>2012-04-01T12:57:23Z</time>
      </trkpt>
      <trkpt lat="43.1855" lon="6.38994">
        <ele>156.5</ele>
        <time>2012-04-01T12:57:32Z</time>
      </trkpt>
      <trkpt lat="43.18554" lon="6.39004">
        <ele>157.3</ele>
        <time>2012-04-01T12:57:43Z</time>
      </trkpt>
      <trkpt lat="43.18557" lon="6.39015">
        <ele>158</ele>
        <time>2012-04-01T12:57:53Z</time>
      </trkpt>
      <trkpt lat="43.1856" lon="6.39026">
        <ele>158.1</ele>
        <time>2012-04-01T12:58:02Z</time>
      </trkpt>
      <trkpt lat="43.18563" lon="6.39037">
        <ele>158.8</ele>
        <time>2012-04-01T12:58:13Z</time>
      </trkpt>
      <trkpt lat="43.18563" lon="6.39038">
        <ele>159.2</ele>
        <time>2012-04-01T12:58:14Z</time>
      </trkpt>
      <trkpt lat="43.18567" lon="6.39059">
        <ele>160.3</ele>
        <time>2012-04-01T12:58:34Z</time>
      </trkpt>
      <trkpt lat="43.1857" lon="6.39071">
        <ele>160.7</ele>
        <time>2012-04-01T12:58:45Z</time>
      </trkpt>
      <trkpt lat="43.18573" lon="6.39081">
        <ele>161.7</ele>
        <time>2012-04-01T12:58:55Z</time>
      </trkpt>
      <trkpt lat="43.18579" lon="6.39089">
        <ele>162.4</ele>
        <time>2012-04-01T12:59:05Z</time>
      </trkpt>
      <trkpt lat="43.18586" lon="6.39095">
        <ele>162.3</ele>
        <time>2012-04-01T12:59:14Z</time>
      </trkpt>
      <trkpt lat="43.18594" lon="6.39099">
        <ele>161.9</ele>
        <time>2012-04-01T12:59:24Z</time>
      </trkpt>
      <trkpt lat="43.18595" lon="6.39099">
        <ele>162</ele>
        <time>2012-04-01T12:59:25Z</time>
      </trkpt>
      <trkpt lat="43.18611" lon="6.39103">
        <ele>161.7</ele>
        <time>2012-04-01T12:59:42Z</time>
      </trkpt>
      <trkpt lat="43.1862" lon="6.39105">
        <ele>162.2</ele>
        <time>2012-04-01T12:59:51Z</time>
      </trkpt>
      <trkpt lat="43.18628" lon="6.39107">
        <ele>162.3</ele>
        <time>2012-04-01T13:00:00Z</time>
      </trkpt>
      <trkpt lat="43.18636" lon="6.39108">
        <ele>161.6</ele>
        <time>2012-04-01T13:00:09Z</time>
      </trkpt>
      <trkpt lat="43.18644" lon="6.39109">
        <ele>162.2</ele>
        <time>2012-04-01T13:00:21Z</time>
      </trkpt>
      <trkpt lat="43.18653" lon="6.3911">
        <ele>163.1</ele>
        <time>2012-04-01T13:00:29Z</time>
      </trkpt>
      <trkpt lat="43.18654" lon="6.3911">
        <ele>163.2</ele>
        <time>2012-04-01T13:00:30Z</time>
      </trkpt>
      <trkpt lat="43.1867" lon="6.39112">
        <ele>164.4</ele>
        <time>2012-04-01T13:00:48Z</time>
      </trkpt>
      <trkpt lat="43.18678" lon="6.39113">
        <ele>164.3</ele>
        <time>2012-04-01T13:00:56Z</time>
      </trkpt>
      <trkpt lat="43.18687" lon="6.39115">
        <ele>164.8</ele>
        <time>2012-04-01T13:01:05Z</time>
      </trkpt>
      <trkpt lat="43.18695" lon="6.39117">
        <ele>164.4</ele>
        <time>2012-04-01T13:01:16Z</time>
      </trkpt>
      <trkpt lat="43.18703" lon="6.39119">
        <ele>164.5</ele>
        <time>2012-04-01T13:01:27Z</time>
      </trkpt>
      <trkpt lat="43.1871" lon="6.39125">
        <ele>164.7</ele>
        <time>2012-04-01T13:01:36Z</time>
      </trkpt>
      <trkpt lat="43.18711" lon="6.39126">
        <ele>165</ele>
        <time>2012-04-01T13:01:37Z</time>
      </trkpt>
      <trkpt lat="43.18723" lon="6.3914">
        <ele>166.9</ele>
        <time>2012-04-01T13:01:58Z</time>
      </trkpt>
      <trkpt lat="43.1873" lon="6.39148">
        <ele>167.5</ele>
        <time>2012-04-01T13:02:09Z</time>
      </trkpt>
      <trkpt lat="43.18737" lon="6.39155">
        <ele>168.1</ele>
        <time>2012-04-01T13:02:19Z</time>
      </trkpt>
      <trkpt lat="43.18743" lon="6.39164">
        <ele>168.3</ele>
        <time>2012-04-01T13:02:28Z</time>
      </trkpt>
      <trkpt lat="43.18748" lon="6.39173">
        <ele>168.4</ele>
        <time>2012-04-01T13:02:37Z</time>
      </trkpt>
      <trkpt lat="43.18749" lon="6.39174">
        <ele>168.6</ele>
        <time>2012-04-01T13:02:38Z</time>
      </trkpt>
      <trkpt lat="43.18758" lon="6.39191">
        <ele>169.3</ele>
        <time>2012-04-01T13:02:58Z</time>
      </trkpt>
      <trkpt lat="43.18764" lon="6.39201">
        <ele>169.6</ele>
        <time>2012-04-01T13:03:07Z</time>
      </trkpt>
      <trkpt lat="43.18768" lon="6.39211">
        <ele>170.2</ele>
        <time>2012-04-01T13:03:17Z</time>
      </trkpt>
      <trkpt lat="43.18773" lon="6.39221">
        <ele>170.9</ele>
        <time>2012-04-01T13:03:29Z</time>
      </trkpt>
      <trkpt lat="43.18778" lon="6.3923">
        <ele>171.5</ele>
        <time>2012-04-01T13:03:39Z</time>
      </trkpt>
      <trkpt lat="43.18779" lon="6.39231">
        <ele>172</ele>
        <time>2012-04-01T13:03:40Z</time>
      </trkpt>
      <trkpt lat="43.1879" lon="6.39248">
        <ele>172.5</ele>
        <time>2012-04-01T13:03:59Z</time>
      </trkpt>
      <trkpt lat="43.18797" lon="6.39255">
        <ele>173.6</ele>
        <time>2012-04-01T13:04:08Z</time>
      </trkpt>
      <trkpt lat="43.18804" lon="6.39261">
        <ele>173.7</ele>
        <time>2012-04-01T13:04:16Z</time>
      </trkpt>
      <trkpt lat="43.18811" lon="6.39268">
        <ele>174.6</ele>
        <time>2012-04-01T13:04:25Z</time>
      </trkpt>
      <trkpt lat="43.18818" lon="6.39276">
        <ele>174.8</ele>
        <time>2012-04-01T13:04:36Z</time>
      </trkpt>
      <trkpt lat="43.18824" lon="6.39284">
        <ele>175.5</ele>
        <time>2012-04-01T13:04:46Z</time>
      </trkpt>
      <trkpt lat="43.18825" lon="6.39284">
        <ele>175.7</ele>
        <time>2012-04-01T13:04:47Z</time>
      </trkpt>
      <trkpt lat="43.18837" lon="6.39299">
        <ele>175.5</ele>
        <time>2012-04-01T13:05:06Z</time>
      </trkpt>
      <trkpt lat="43.18844" lon="6.39307">
        <ele>175.5</ele>
        <time>2012-04-01T13:05:16Z</time>
      </trkpt>
      <trkpt lat="43.1885" lon="6.39316">
        <ele>175.8</ele>
        <time>2012-04-01T13:05:25Z</time>
      </trkpt>
      <trkpt lat="43.18855" lon="6.39325">
        <ele>176</ele>
        <time>2012-04-01T13:05:34Z</time>
      </trkpt>
      <trkpt lat="43.18861" lon="6.39334">
        <ele>176.1</ele>
        <time>2012-04-01T13:05:43Z</time>
      </trkpt>
      <trkpt lat="43.18866" lon="6.39343">
        <ele>175.9</ele>
        <time>2012-04-01T13:05:53Z</time>
      </trkpt>
      <trkpt lat="43.18867" lon="6.39344">
        <ele>175.8</ele>
        <time>2012-04-01T13:05:54Z</time>
      </trkpt>
      <trkpt lat="43.18878" lon="6.3936">
        <ele>176.5</ele>
        <time>2012-04-01T13:06:11Z</time>
      </trkpt>
      <trkpt lat="43.18884" lon="6.39367">
        <ele>175.8</ele>
        <time>2012-04-01T13:06:19Z</time>
      </trkpt>
      <trkpt lat="43.1889" lon="6.39377">
        <ele>176.5</ele>
        <time>2012-04-01T13:06:33Z</time>
      </trkpt>
      <trkpt lat="43.18897" lon="6.39384">
        <ele>176.8</ele>
        <time>2012-04-01T13:06:44Z</time>
      </trkpt>
      <trkpt lat="43.18904" lon="6.39391">
        <ele>176.5</ele>
        <time>2012-04-01T13:06:54Z</time>
      </trkpt>
      <trkpt lat="43.18904" lon="6.39391">
        <ele>176.3</ele>
        <time>2012-04-01T13:06:55Z</time>
      </trkpt>
      <trkpt lat="43.18918" lon="6.39405">
        <ele>176.9</ele>
        <time>2012-04-01T13:07:12Z</time>
      </trkpt>
      <trkpt lat="43.18924" lon="6.39413">
        <ele>176.1</ele>
        <time>2012-04-01T13:07:19Z</time>
      </trkpt>
      <trkpt lat="43.1893" lon="6.39421">
        <ele>176.6</ele>
        <time>2012-04-01T13:07:27Z</time>
      </trkpt>
      <trkpt lat="43.18938" lon="6.39426">
        <ele>176.2</ele>
        <time>2012-04-01T13:07:35Z</time>
      </trkpt>
      <trkpt lat="43.18946" lon="6.39428">
        <ele>176.3</ele>
        <time>2012-04-01T13:07:42Z</time>
      </trkpt>
      <trkpt lat="43.18954" lon="6.39426">
        <ele>176.5</ele>
        <time>2012-04-01T13:07:51Z</time>
      </trkpt>
      <trkpt lat="43.18962" lon="6.39421">
        <ele>175.7</ele>
        <time>2012-04-01T13:08:02Z</time>
      </trkpt>
      <trkpt lat="43.18962" lon="6.3942">
        <ele>175.6</ele>
        <time>2012-04-01T13:08:03Z</time>
      </trkpt>
      <trkpt lat="43.18972" lon="6.39402">
        <ele>175.2</ele>
        <time>2012-04-01T13:08:22Z</time>
      </trkpt>
      <trkpt lat="43.18977" lon="6.39393">
        <ele>174.6</ele>
        <time>2012-04-01T13:08:31Z</time>
      </trkpt>
      <trkpt lat="43.18983" lon="6.39384">
        <ele>174.9</ele>
        <time>2012-04-01T13:08:41Z</time>
      </trkpt>
      <trkpt lat="43.18987" lon="6.39374">
        <ele>174.4</ele>
        <time>2012-04-01T13:08:50Z</time>
      </trkpt>
      <trkpt lat="43.1899" lon="6.39363">
        <ele>173.9</ele>
        <time>2012-04-01T13:09:00Z</time>
      </trkpt>
      <trkpt lat="43.1899" lon="6.39352">
        <ele>174.1</ele>
        <time>2012-04-01T13:09:09Z</time>
      </trkpt>
      <trkpt lat="43.18989" lon="6.3935">
        <ele>174.4</ele>
        <time>2012-04-01T13:09:10Z</time>
      </trkpt>
      <trkpt lat="43.18992" lon="6.39329">
        <ele>175.1</ele>
        <time>2012-04-01T13:09:26Z</time>
      </trkpt>
      <trkpt lat="43.18992" lon="6.39318">
        <ele>175.3</ele>
        <time>2012-04-01T13:09:36Z</time>
      </trkpt>
      <trkpt lat="43.18993" lon="6.39306">
        <ele>175.3</ele>
        <time>2012-04-01T13:09:45Z</time>
      </trkpt>
      <trkpt lat="43.18994" lon="6.39294">
        <ele>175</ele>
        <time>2012-04-01T13:09:54Z</time>
      </trkpt>
      <trkpt lat="43.18993" lon="6.39283">
        <ele>174.4</ele>
        <time>2012-04-01T13:10:02Z</time>
      </trkpt>
      <trkpt lat="43.18989" lon="6.39272">
        <ele>174.5</ele>
        <time>2012-04-01T13:10:12Z</time>
      </trkpt>
      <trkpt lat="43.18989" lon="6.39271">
        <ele>174.6</ele>
        <time>2012-04-01T13:10:13Z</time>
      </trkpt>
      <trkpt lat="43.18977" lon="6.39256">
        <ele>174.3</ele>
        <time>2012-04-01T13:10:30Z</time>
      </trkpt>
      <trkpt lat="43.18969" lon="6.3925">
        <ele>174.9</ele>
        <time>2012-04-01T13:10:41Z</time>
      </trkpt>
      <trkpt lat="43.18964" lon="6.3924">
        <ele>175.3</ele>
        <time>2012-04-01T13:11:02Z</time>
      </trkpt>
      <trkpt lat="43.18965" lon="6.39228">
        <ele>174.9</ele>
        <time>2012-04-01T13:11:14Z</time>
      </trkpt>
      <trkpt lat="43.18966" lon="6.39227">
        <ele>174.5</ele>
        <time>2012-04-01T13:11:15Z</time>
      </trkpt>
      <trkpt lat="43.18966" lon="6.39205">
        <ele>175.1</ele>
        <time>2012-04-01T13:11:31Z</time>
      </trkpt>
      <trkpt lat="43.18964" lon="6.39194">
        <ele>175.2</ele>
        <time>2012-04-01T13:11:39Z</time>
      </trkpt>
      <trkpt lat="43.18963" lon="6.39183">
        <ele>174.2</ele>
        <time>2012-04-01T13:11:47Z</time>
      </trkpt>
      <trkpt lat="43.18959" lon="6.39172">
        <ele>173.6</ele>
        <time>2012-04-01T13:11:56Z</time>
      </trkpt>
      <trkpt lat="43.18956" lon="6.39162">
        <ele>174.1</ele>
        <time>2012-04-01T13:12:04Z</time>
      </trkpt>
      <trkpt lat="43.18951" lon="6.39153">
        <ele>174.7</ele>
        <time>2012-04-01T13:12:12Z</time>
      </trkpt>
      <trkpt lat="43.18943" lon="6.39147">
        <ele>175.1</ele>
        <time>2012-04-01T13:12:21Z</time>
      </trkpt>
      <trkpt lat="43.18942" lon="6.39146">
        <ele>175</ele>
        <time>2012-04-01T13:12:22Z</time>
      </trkpt>
      <trkpt lat="43.18931" lon="6.3913">
        <ele>174.4</ele>
        <time>2012-04-01T13:12:41Z</time>
      </trkpt>
      <trkpt lat="43.18931" lon="6.39119">
        <ele>174.2</ele>
        <time>2012-04-01T13:12:52Z</time>
      </trkpt>
      <trkpt lat="43.1893" lon="6.39107">
        <ele>175.2</ele>
        <time>2012-04-01T13:13:02Z</time>
      </trkpt>
      <trkpt lat="43.18931" lon="6.39095">
        <ele>175.4</ele>
        <time>2012-04-01T13:13:11Z</time>
      </trkpt>
      <trkpt lat="43.18933" lon="6.39083">
        <ele>175.6</ele>
        <time>2012-04-01T13:13:20Z</time>
      </trkpt>
      <trkpt lat="43.18936" lon="6.39072">
        <ele>175.4</ele>
        <time>2012-04-01T13:13:27Z</time>
      </trkpt>
      <trkpt lat="43.18936" lon="6.39071">
        <ele>175.5</ele>
        <time>2012-04-01T13:13:28Z</time>
      </trkpt>
      <trkpt lat="43.18944" lon="6.39051">
        <ele>175.7</ele>
        <time>2012-04-01T13:13:43Z</time>
      </trkpt>
      <trkpt lat="43.18948" lon="6.39042">
        <ele>175.3</ele>
        <time>2012-04-01T13:13:51Z</time>
      </trkpt>
      <trkpt lat="43.18951" lon="6.39031">
        <ele>175.5</ele>
        <time>2012-04-01T13:14:00Z</time>
      </trkpt>
      <trkpt lat="43.18953" lon="6.39019">
        <ele>175.5</ele>
        <time>2012-04-01T13:14:10Z</time>
      </trkpt>
      <trkpt lat="43.18953" lon="6.39007">
        <ele>175.3</ele>
        <time>2012-04-01T13:14:21Z</time>
      </trkpt>
      <trkpt lat="43.18951" lon="6.38996">
        <ele>175.2</ele>
        <time>2012-04-01T13:14:29Z</time>
      </trkpt>
      <trkpt lat="43.18951" lon="6.38995">
        <ele>175.3</ele>
        <time>2012-04-01T13:14:30Z</time>
      </trkpt>
      <trkpt lat="43.18946" lon="6.38973">
        <ele>175.5</ele>
        <time>2012-04-01T13:14:45Z</time>
      </trkpt>
      <trkpt lat="43.18947" lon="6.38961">
        <ele>175.3</ele>
        <time>2012-04-01T13:14:55Z</time>
      </trkpt>
      <trkpt lat="43.18954" lon="6.38954">
        <ele>176</ele>
        <time>2012-04-01T13:15:05Z</time>
      </trkpt>
      <trkpt lat="43.18962" lon="6.38949">
        <ele>175.8</ele>
        <time>2012-04-01T13:15:13Z</time>
      </trkpt>
      <trkpt lat="43.1897" lon="6.38944">
        <ele>175.4</ele>
        <time>2012-04-01T13:15:21Z</time>
      </trkpt>
      <trkpt lat="43.18977" lon="6.38941">
        <ele>176.1</ele>
        <time>2012-04-01T13:15:30Z</time>
      </trkpt>
      <trkpt lat="43.18978" lon="6.3894">
        <ele>176</ele>
        <time>2012-04-01T13:15:31Z</time>
      </trkpt>
      <trkpt lat="43.18993" lon="6.38933">
        <ele>176.2</ele>
        <time>2012-04-01T13:15:48Z</time>
      </trkpt>
      <trkpt lat="43.19001" lon="6.38926">
        <ele>177</ele>
        <time>2012-04-01T13:15:58Z</time>
      </trkpt>
      <trkpt lat="43.19007" lon="6.3892">
        <ele>177.4</ele>
        <time>2012-04-01T13:16:07Z</time>
      </trkpt>
      <trkpt lat="43.19014" lon="6.38912">
        <ele>177.5</ele>
        <time>2012-04-01T13:16:15Z</time>
      </trkpt>
      <trkpt lat="43.19021" lon="6.38905">
        <ele>177.9</ele>
        <time>2012-04-01T13:16:23Z</time>
      </trkpt>
      <trkpt lat="43.19028" lon="6.38898">
        <ele>178.5</ele>
        <time>2012-04-01T13:16:31Z</time>
      </trkpt>
      <trkpt lat="43.19034" lon="6.38889">
        <ele>178.8</ele>
        <time>2012-04-01T13:16:40Z</time>
      </trkpt>
      <trkpt lat="43.19034" lon="6.38887">
        <ele>178.7</ele>
        <time>2012-04-01T13:16:41Z</time>
      </trkpt>
      <trkpt lat="43.19027" lon="6.3887">
        <ele>179.1</ele>
        <time>2012-04-01T13:16:58Z</time>
      </trkpt>
      <trkpt lat="43.19019" lon="6.38865">
        <ele>178.7</ele>
        <time>2012-04-01T13:17:07Z</time>
      </trkpt>
      <trkpt lat="43.1901" lon="6.38861">
        <ele>179.1</ele>
        <time>2012-04-01T13:17:16Z</time>
      </trkpt>
      <trkpt lat="43.19004" lon="6.38855">
        <ele>179.3</ele>
        <time>2012-04-01T13:17:25Z</time>
      </trkpt>
      <trkpt lat="43.19002" lon="6.38843">
        <ele>179.1</ele>
        <time>2012-04-01T13:17:34Z</time>
      </trkpt>
      <trkpt lat="43.19003" lon="6.38832">
        <ele>178.7</ele>
        <time>2012-04-01T13:17:43Z</time>
      </trkpt>
      <trkpt lat="43.19003" lon="6.38831">
        <ele>178.8</ele>
        <time>2012-04-01T13:17:44Z</time>
      </trkpt>
      <trkpt lat="43.19" lon="6.38809">
        <ele>178.5</ele>
        <time>2012-04-01T13:18:00Z</time>
      </trkpt>
      <trkpt lat="43.18996" lon="6.38799">
        <ele>178.5</ele>
        <time>2012-04-01T13:18:08Z</time>
      </trkpt>
      <trkpt lat="43.18991" lon="6.3879">
        <ele>178.8</ele>
        <time>2012-04-01T13:18:16Z</time>
      </trkpt>
      <trkpt lat="43.18984" lon="6.38783">
        <ele>179.1</ele>
        <time>2012-04-01T13:18:25Z</time>
      </trkpt>
      <trkpt lat="43.18976" lon="6.38777">
        <ele>178.6</ele>
        <time>2012-04-01T13:18:34Z</time>
      </trkpt>
      <trkpt lat="43.18968" lon="6.38773">
        <ele>179</ele>
        <time>2012-04-01T13:18:42Z</time>
      </trkpt>
      <trkpt lat="43.18961" lon="6.38765">
        <ele>178.7</ele>
        <time>2012-04-01T13:18:51Z</time>
      </trkpt>
      <trkpt lat="43.18961" lon="6.38764">
        <ele>178.8</ele>
        <time>2012-04-01T13:18:52Z</time>
      </trkpt>
      <trkpt lat="43.18963" lon="6.38742">
        <ele>178.2</ele>
        <time>2012-04-01T13:19:11Z</time>
      </trkpt>
      <trkpt lat="43.18965" lon="6.3873">
        <ele>178.7</ele>
        <time>2012-04-01T13:19:19Z</time>
      </trkpt>
      <trkpt lat="43.18963" lon="6.38719">
        <ele>178.3</ele>
        <time>2012-04-01T13:19:27Z</time>
      </trkpt>
      <trkpt lat="43.18959" lon="6.38709">
        <ele>177.9</ele>
        <time>2012-04-01T13:19:35Z</time>
      </trkpt>
      <trkpt lat="43.18953" lon="6.38701">
        <ele>179.2</ele>
        <time>2012-04-01T13:19:43Z</time>
      </trkpt>
      <trkpt lat="43.18948" lon="6.38692">
        <ele>178.1</ele>
        <time>2012-04-01T13:19:51Z</time>
      </trkpt>
      <trkpt lat="43.18943" lon="6.38682">
        <ele>178.5</ele>
        <time>2012-04-01T13:20:00Z</time>
      </trkpt>
      <trkpt lat="43.18943" lon="6.38681">
        <ele>178.7</ele>
        <time>2012-04-01T13:20:01Z</time>
      </trkpt>
      <trkpt lat="43.18934" lon="6.38662">
        <ele>178.1</ele>
        <time>2012-04-01T13:20:18Z</time>
      </trkpt>
      <trkpt lat="43.18929" lon="6.38653">
        <ele>178.4</ele>
        <time>2012-04-01T13:20:26Z</time>
      </trkpt>
      <trkpt lat="43.18924" lon="6.38644">
        <ele>178.3</ele>
        <time>2012-04-01T13:20:34Z</time>
      </trkpt>
      <trkpt lat="43.18921" lon="6.38634">
        <ele>178</ele>
        <time>2012-04-01T13:20:43Z</time>
      </trkpt>
      <trkpt lat="43.18924" lon="6.38623">
        <ele>178</ele>
        <time>2012-04-01T13:20:53Z</time>
      </trkpt>
      <trkpt lat="43.18931" lon="6.38616">
        <ele>177.3</ele>
        <time>2012-04-01T13:21:02Z</time>
      </trkpt>
      <trkpt lat="43.18932" lon="6.38616">
        <ele>177.2</ele>
        <time>2012-04-01T13:21:03Z</time>
      </trkpt>
      <trkpt lat="43.18947" lon="6.38607">
        <ele>178.1</ele>
        <time>2012-04-01T13:21:20Z</time>
      </trkpt>
      <trkpt lat="43.18955" lon="6.38602">
        <ele>177.7</ele>
        <time>2012-04-01T13:21:29Z</time>
      </trkpt>
      <trkpt lat="43.18963" lon="6.38597">
        <ele>177.8</ele>
        <time>2012-04-01T13:21:37Z</time>
      </trkpt>
      <trkpt lat="43.18971" lon="6.38593">
        <ele>177.6</ele>
        <time>2012-04-01T13:21:46Z</time>
      </trkpt>
      <trkpt lat="43.18978" lon="6.38588">
        <ele>178.4</ele>
        <time>2012-04-01T13:21:54Z</time>
      </trkpt>
      <trkpt lat="43.18986" lon="6.38584">
        <ele>178.7</ele>
        <time>2012-04-01T13:22:03Z</time>
      </trkpt>
      <trkpt lat="43.18987" lon="6.38583">
        <ele>178.4</ele>
        <time>2012-04-01T13:22:04Z</time>
      </trkpt>
      <trkpt lat="43.19003" lon="6.38577">
        <ele>179</ele>
        <time>2012-04-01T13:22:26Z</time>
      </trkpt>
      <trkpt lat="43.19011" lon="6.38572">
        <ele>178.5</ele>
        <time>2012-04-01T13:22:35Z</time>
      </trkpt>
      <trkpt lat="43.19018" lon="6.38566">
        <ele>179.1</ele>
        <time>2012-04-01T13:22:44Z</time>
      </trkpt>
      <trkpt lat="43.19026" lon="6.38561">
        <ele>176.5</ele>
        <time>2012-04-01T13:27:59Z</time>
      </trkpt>
      <trkpt lat="43.19026" lon="6.38561">
        <ele>176.5</ele>
        <time>2012-04-01T13:28:00Z</time>
      </trkpt>
      <trkpt lat="43.19043" lon="6.38561">
        <ele>169.8</ele>
        <time>2012-04-01T13:28:39Z</time>
      </trkpt>
      <trkpt lat="43.19052" lon="6.38564">
        <ele>167.7</ele>
        <time>2012-04-01T13:29:02Z</time>
      </trkpt>
      <trkpt lat="43.19052" lon="6.38565">
        <ele>167.5</ele>
        <time>2012-04-01T13:29:03Z</time>
      </trkpt>
      <trkpt lat="43.19065" lon="6.38548">
        <ele>164.6</ele>
        <time>2012-04-01T13:29:34Z</time>
      </trkpt>
      <trkpt lat="43.19069" lon="6.38558">
        <ele>162.4</ele>
        <time>2012-04-01T13:29:55Z</time>
      </trkpt>
      <trkpt lat="43.19075" lon="6.38565">
        <ele>161.1</ele>
        <time>2012-04-01T13:30:08Z</time>
      </trkpt>
      <trkpt lat="43.19076" lon="6.38566">
        <ele>161.3</ele>
        <time>2012-04-01T13:30:09Z</time>
      </trkpt>
      <trkpt lat="43.19083" lon="6.38563">
        <ele>157.2</ele>
        <time>2012-04-01T13:30:43Z</time>
      </trkpt>
      <trkpt lat="43.19088" lon="6.38554">
        <ele>156.3</ele>
        <time>2012-04-01T13:30:57Z</time>
      </trkpt>
      <trkpt lat="43.19091" lon="6.38543">
        <ele>154.7</ele>
        <time>2012-04-01T13:31:10Z</time>
      </trkpt>
      <trkpt lat="43.19091" lon="6.38542">
        <ele>154.6</ele>
        <time>2012-04-01T13:31:11Z</time>
      </trkpt>
      <trkpt lat="43.19096" lon="6.38541">
        <ele>151.5</ele>
        <time>2012-04-01T13:31:41Z</time>
      </trkpt>
      <trkpt lat="43.19099" lon="6.38553">
        <ele>151.2</ele>
        <time>2012-04-01T13:31:54Z</time>
      </trkpt>
      <trkpt lat="43.19106" lon="6.38557">
        <ele>150.8</ele>
        <time>2012-04-01T13:32:03Z</time>
      </trkpt>
      <trkpt lat="43.19111" lon="6.38566">
        <ele>149.8</ele>
        <time>2012-04-01T13:32:15Z</time>
      </trkpt>
      <trkpt lat="43.19112" lon="6.38567">
        <ele>149.8</ele>
        <time>2012-04-01T13:32:16Z</time>
      </trkpt>
      <trkpt lat="43.19124" lon="6.38582">
        <ele>147.8</ele>
        <time>2012-04-01T13:32:35Z</time>
      </trkpt>
      <trkpt lat="43.19128" lon="6.38572">
        <ele>144.5</ele>
        <time>2012-04-01T13:33:04Z</time>
      </trkpt>
      <trkpt lat="43.19127" lon="6.3856">
        <ele>143</ele>
        <time>2012-04-01T13:33:15Z</time>
      </trkpt>
      <trkpt lat="43.19125" lon="6.38548">
        <ele>142.7</ele>
        <time>2012-04-01T13:33:29Z</time>
      </trkpt>
      <trkpt lat="43.19125" lon="6.38548">
        <ele>142.2</ele>
        <time>2012-04-01T13:33:30Z</time>
      </trkpt>
      <trkpt lat="43.19124" lon="6.38525">
        <ele>140.9</ele>
        <time>2012-04-01T13:33:58Z</time>
      </trkpt>
      <trkpt lat="43.19124" lon="6.38514">
        <ele>139.6</ele>
        <time>2012-04-01T13:34:08Z</time>
      </trkpt>
      <trkpt lat="43.1913" lon="6.38523">
        <ele>136.4</ele>
        <time>2012-04-01T13:34:33Z</time>
      </trkpt>
      <trkpt lat="43.1913" lon="6.38523">
        <ele>135.8</ele>
        <time>2012-04-01T13:34:34Z</time>
      </trkpt>
      <trkpt lat="43.19141" lon="6.3854">
        <ele>133.5</ele>
        <time>2012-04-01T13:34:57Z</time>
      </trkpt>
      <trkpt lat="43.19148" lon="6.38544">
        <ele>131.7</ele>
        <time>2012-04-01T13:35:09Z</time>
      </trkpt>
      <trkpt lat="43.19156" lon="6.38548">
        <ele>131.2</ele>
        <time>2012-04-01T13:35:20Z</time>
      </trkpt>
      <trkpt lat="43.19163" lon="6.38554">
        <ele>129.2</ele>
        <time>2012-04-01T13:35:33Z</time>
      </trkpt>
      <trkpt lat="43.19171" lon="6.3856">
        <ele>129</ele>
        <time>2012-04-01T13:35:42Z</time>
      </trkpt>
      <trkpt lat="43.19171" lon="6.38561">
        <ele>128.9</ele>
        <time>2012-04-01T13:35:43Z</time>
      </trkpt>
      <trkpt lat="43.19185" lon="6.38571">
        <ele>126.5</ele>
        <time>2012-04-01T13:36:02Z</time>
      </trkpt>
      <trkpt lat="43.19192" lon="6.38578">
        <ele>125.4</ele>
        <time>2012-04-01T13:36:10Z</time>
      </trkpt>
      <trkpt lat="43.19199" lon="6.38581">
        <ele>124.6</ele>
        <time>2012-04-01T13:36:18Z</time>
      </trkpt>
      <trkpt lat="43.19208" lon="6.38579">
        <ele>123.2</ele>
        <time>2012-04-01T13:36:28Z</time>
      </trkpt>
      <trkpt lat="43.19216" lon="6.38574">
        <ele>122.4</ele>
        <time>2012-04-01T13:36:39Z</time>
      </trkpt>
      <trkpt lat="43.19225" lon="6.38573">
        <ele>121.3</ele>
        <time>2012-04-01T13:36:51Z</time>
      </trkpt>
      <trkpt lat="43.19225" lon="6.38573">
        <ele>121.2</ele>
        <time>2012-04-01T13:36:52Z</time>
      </trkpt>
      <trkpt lat="43.19232" lon="6.38561">
        <ele>117.2</ele>
        <time>2012-04-01T13:37:29Z</time>
      </trkpt>
      <trkpt lat="43.19227" lon="6.38551">
        <ele>115.4</ele>
        <time>2012-04-01T13:37:44Z</time>
      </trkpt>
      <trkpt lat="43.19218" lon="6.38549">
        <ele>113.9</ele>
        <time>2012-04-01T13:38:01Z</time>
      </trkpt>
      <trkpt lat="43.19218" lon="6.38549">
        <ele>113.7</ele>
        <time>2012-04-01T13:38:02Z</time>
      </trkpt>
      <trkpt lat="43.19205" lon="6.38538">
        <ele>111.4</ele>
        <time>2012-04-01T13:38:26Z</time>
      </trkpt>
      <trkpt lat="43.19201" lon="6.38527">
        <ele>109.9</ele>
        <time>2012-04-01T13:38:39Z</time>
      </trkpt>
      <trkpt lat="43.19197" lon="6.38516">
        <ele>107.7</ele>
        <time>2012-04-01T13:38:49Z</time>
      </trkpt>
      <trkpt lat="43.19192" lon="6.38507">
        <ele>107.3</ele>
        <time>2012-04-01T13:38:58Z</time>
      </trkpt>
      <trkpt lat="43.19187" lon="6.38497">
        <ele>105.4</ele>
        <time>2012-04-01T13:39:11Z</time>
      </trkpt>
      <trkpt lat="43.19187" lon="6.38497">
        <ele>105.5</ele>
        <time>2012-04-01T13:39:12Z</time>
      </trkpt>
      <trkpt lat="43.19185" lon="6.38474">
        <ele>101.2</ele>
        <time>2012-04-01T13:39:37Z</time>
      </trkpt>
      <trkpt lat="43.19187" lon="6.38462">
        <ele>99.4</ele>
        <time>2012-04-01T13:39:48Z</time>
      </trkpt>
      <trkpt lat="43.19194" lon="6.38454">
        <ele>97.5</ele>
        <time>2012-04-01T13:39:59Z</time>
      </trkpt>
      <trkpt lat="43.19203" lon="6.38452">
        <ele>97.3</ele>
        <time>2012-04-01T13:40:32Z</time>
      </trkpt>
      <trkpt lat="43.19203" lon="6.38451">
        <ele>97.1</ele>
        <time>2012-04-01T13:40:33Z</time>
      </trkpt>
      <trkpt lat="43.19201" lon="6.38428">
        <ele>96.9</ele>
        <time>2012-04-01T13:41:59Z</time>
      </trkpt>
      <trkpt lat="43.19202" lon="6.38427">
        <ele>97.2</ele>
        <time>2012-04-01T13:42:00Z</time>
      </trkpt>
      <trkpt lat="43.19204" lon="6.38405">
        <ele>96.3</ele>
        <time>2012-04-01T13:42:20Z</time>
      </trkpt>
      <trkpt lat="43.19204" lon="6.38393">
        <ele>96.6</ele>
        <time>2012-04-01T13:42:39Z</time>
      </trkpt>
      <trkpt lat="43.19202" lon="6.38381">
        <ele>96.4</ele>
        <time>2012-04-01T13:44:08Z</time>
      </trkpt>
      <trkpt lat="43.19201" lon="6.38381">
        <ele>96.4</ele>
        <time>2012-04-01T13:44:09Z</time>
      </trkpt>
      <trkpt lat="43.19208" lon="6.38359">
        <ele>98.1</ele>
        <time>2012-04-01T13:45:27Z</time>
      </trkpt>
      <trkpt lat="43.19208" lon="6.38358">
        <ele>98.2</ele>
        <time>2012-04-01T13:45:28Z</time>
      </trkpt>
      <trkpt lat="43.19206" lon="6.38338">
        <ele>98</ele>
        <time>2012-04-01T13:46:27Z</time>
      </trkpt>
      <trkpt lat="43.19209" lon="6.38326">
        <ele>98.4</ele>
        <time>2012-04-01T13:46:51Z</time>
      </trkpt>
      <trkpt lat="43.19209" lon="6.38325">
        <ele>98.4</ele>
        <time>2012-04-01T13:46:52Z</time>
      </trkpt>
      <trkpt lat="43.19211" lon="6.38303">
        <ele>98.1</ele>
        <time>2012-04-01T13:47:13Z</time>
      </trkpt>
      <trkpt lat="43.19213" lon="6.38291">
        <ele>98</ele>
        <time>2012-04-01T13:47:24Z</time>
      </trkpt>
      <trkpt lat="43.19214" lon="6.3828">
        <ele>97.7</ele>
        <time>2012-04-01T13:47:34Z</time>
      </trkpt>
      <trkpt lat="43.19215" lon="6.38268">
        <ele>97.8</ele>
        <time>2012-04-01T13:47:44Z</time>
      </trkpt>
      <trkpt lat="43.19217" lon="6.38257">
        <ele>97.5</ele>
        <time>2012-04-01T13:47:59Z</time>
      </trkpt>
      <trkpt lat="43.19217" lon="6.38256">
        <ele>97.8</ele>
        <time>2012-04-01T13:48:00Z</time>
      </trkpt>
      <trkpt lat="43.1922" lon="6.38234">
        <ele>97</ele>
        <time>2012-04-01T13:48:32Z</time>
      </trkpt>
      <trkpt lat="43.19219" lon="6.38222">
        <ele>96.9</ele>
        <time>2012-04-01T13:48:39Z</time>
      </trkpt>
      <trkpt lat="43.19219" lon="6.3821">
        <ele>97.4</ele>
        <time>2012-04-01T13:48:49Z</time>
      </trkpt>
      <trkpt lat="43.19218" lon="6.38198">
        <ele>97</ele>
        <time>2012-04-01T13:49:02Z</time>
      </trkpt>
      <trkpt lat="43.19218" lon="6.38197">
        <ele>97.1</ele>
        <time>2012-04-01T13:49:03Z</time>
      </trkpt>
      <trkpt lat="43.19212" lon="6.38177">
        <ele>97.3</ele>
        <time>2012-04-01T13:49:25Z</time>
      </trkpt>
      <trkpt lat="43.19209" lon="6.38166">
        <ele>97.2</ele>
        <time>2012-04-01T13:49:35Z</time>
      </trkpt>
      <trkpt lat="43.19206" lon="6.38156">
        <ele>97.3</ele>
        <time>2012-04-01T13:49:45Z</time>
      </trkpt>
      <trkpt lat="43.19205" lon="6.38144">
        <ele>96.9</ele>
        <time>2012-04-01T13:49:54Z</time>
      </trkpt>
      <trkpt lat="43.19204" lon="6.38132">
        <ele>96.9</ele>
        <time>2012-04-01T13:50:02Z</time>
      </trkpt>
      <trkpt lat="43.19204" lon="6.38121">
        <ele>96</ele>
        <time>2012-04-01T13:50:20Z</time>
      </trkpt>
      <trkpt lat="43.19204" lon="6.38119">
        <ele>96</ele>
        <time>2012-04-01T13:50:21Z</time>
      </trkpt>
      <trkpt lat="43.19204" lon="6.38098">
        <ele>97.2</ele>
        <time>2012-04-01T13:50:57Z</time>
      </trkpt>
      <trkpt lat="43.19201" lon="6.38088">
        <ele>97.1</ele>
        <time>2012-04-01T13:51:06Z</time>
      </trkpt>
      <trkpt lat="43.192" lon="6.38076">
        <ele>97.9</ele>
        <time>2012-04-01T13:51:21Z</time>
      </trkpt>
      <trkpt lat="43.192" lon="6.38075">
        <ele>97.9</ele>
        <time>2012-04-01T13:51:22Z</time>
      </trkpt>
      <trkpt lat="43.19218" lon="6.38075">
        <ele>99.1</ele>
        <time>2012-04-01T13:51:55Z</time>
      </trkpt>
      <trkpt lat="43.19226" lon="6.38081">
        <ele>99.3</ele>
        <time>2012-04-01T13:52:06Z</time>
      </trkpt>
      <trkpt lat="43.19231" lon="6.38088">
        <ele>99</ele>
        <time>2012-04-01T13:52:15Z</time>
      </trkpt>
      <trkpt lat="43.19235" lon="6.38099">
        <ele>99.8</ele>
        <time>2012-04-01T13:52:25Z</time>
      </trkpt>
      <trkpt lat="43.19235" lon="6.381">
        <ele>99.8</ele>
        <time>2012-04-01T13:52:26Z</time>
      </trkpt>
      <trkpt lat="43.19242" lon="6.3812">
        <ele>100.1</ele>
        <time>2012-04-01T13:52:50Z</time>
      </trkpt>
      <trkpt lat="43.19246" lon="6.3813">
        <ele>100.6</ele>
        <time>2012-04-01T13:53:00Z</time>
      </trkpt>
      <trkpt lat="43.19249" lon="6.38141">
        <ele>101.5</ele>
        <time>2012-04-01T13:53:12Z</time>
      </trkpt>
      <trkpt lat="43.19253" lon="6.38152">
        <ele>101.3</ele>
        <time>2012-04-01T13:53:22Z</time>
      </trkpt>
      <trkpt lat="43.19257" lon="6.38162">
        <ele>101.6</ele>
        <time>2012-04-01T13:53:34Z</time>
      </trkpt>
      <trkpt lat="43.19258" lon="6.38163">
        <ele>101.4</ele>
        <time>2012-04-01T13:53:35Z</time>
      </trkpt>
      <trkpt lat="43.19268" lon="6.38181">
        <ele>101.9</ele>
        <time>2012-04-01T13:53:54Z</time>
      </trkpt>
      <trkpt lat="43.19274" lon="6.38189">
        <ele>101.8</ele>
        <time>2012-04-01T13:54:05Z</time>
      </trkpt>
      <trkpt lat="43.19281" lon="6.38196">
        <ele>102</ele>
        <time>2012-04-01T13:54:14Z</time>
      </trkpt>
      <trkpt lat="43.19289" lon="6.38202">
        <ele>101.9</ele>
        <time>2012-04-01T13:54:25Z</time>
      </trkpt>
      <trkpt lat="43.19296" lon="6.38209">
        <ele>102.8</ele>
        <time>2012-04-01T13:54:37Z</time>
      </trkpt>
      <trkpt lat="43.19296" lon="6.38209">
        <ele>102.5</ele>
        <time>2012-04-01T13:54:38Z</time>
      </trkpt>
      <trkpt lat="43.1931" lon="6.38221">
        <ele>102.5</ele>
        <time>2012-04-01T13:54:57Z</time>
      </trkpt>
      <trkpt lat="43.19316" lon="6.38228">
        <ele>102.9</ele>
        <time>2012-04-01T13:55:06Z</time>
      </trkpt>
      <trkpt lat="43.19323" lon="6.38234">
        <ele>102.8</ele>
        <time>2012-04-01T13:55:17Z</time>
      </trkpt>
      <trkpt lat="43.19329" lon="6.38243">
        <ele>103.3</ele>
        <time>2012-04-01T13:55:27Z</time>
      </trkpt>
      <trkpt lat="43.19332" lon="6.38254">
        <ele>103.4</ele>
        <time>2012-04-01T13:55:38Z</time>
      </trkpt>
      <trkpt lat="43.19333" lon="6.38255">
        <ele>103.4</ele>
        <time>2012-04-01T13:55:39Z</time>
      </trkpt>
      <trkpt lat="43.19333" lon="6.38277">
        <ele>103.7</ele>
        <time>2012-04-01T13:55:57Z</time>
      </trkpt>
      <trkpt lat="43.19331" lon="6.38288">
        <ele>104.6</ele>
        <time>2012-04-01T13:56:07Z</time>
      </trkpt>
      <trkpt lat="43.19332" lon="6.383">
        <ele>104.8</ele>
        <time>2012-04-01T13:56:20Z</time>
      </trkpt>
      <trkpt lat="43.19339" lon="6.38306">
        <ele>104.9</ele>
        <time>2012-04-01T13:56:35Z</time>
      </trkpt>
      <trkpt lat="43.19347" lon="6.38304">
        <ele>105.1</ele>
        <time>2012-04-01T13:56:46Z</time>
      </trkpt>
      <trkpt lat="43.19348" lon="6.38303">
        <ele>105.2</ele>
        <time>2012-04-01T13:56:47Z</time>
      </trkpt>
      <trkpt lat="43.19365" lon="6.38307">
        <ele>106.2</ele>
        <time>2012-04-01T13:57:07Z</time>
      </trkpt>
      <trkpt lat="43.19373" lon="6.3831">
        <ele>106.1</ele>
        <time>2012-04-01T13:57:32Z</time>
      </trkpt>
      <trkpt lat="43.19381" lon="6.38312">
        <ele>106.7</ele>
        <time>2012-04-01T13:57:44Z</time>
      </trkpt>
      <trkpt lat="43.1939" lon="6.38316">
        <ele>107.1</ele>
        <time>2012-04-01T13:57:55Z</time>
      </trkpt>
      <trkpt lat="43.1939" lon="6.38316">
        <ele>107</ele>
        <time>2012-04-01T13:57:56Z</time>
      </trkpt>
      <trkpt lat="43.19403" lon="6.3833">
        <ele>107.8</ele>
        <time>2012-04-01T13:58:17Z</time>
      </trkpt>
      <trkpt lat="43.19409" lon="6.38338">
        <ele>107.7</ele>
        <time>2012-04-01T13:58:26Z</time>
      </trkpt>
      <trkpt lat="43.19416" lon="6.38345">
        <ele>107.8</ele>
        <time>2012-04-01T13:58:36Z</time>
      </trkpt>
      <trkpt lat="43.19425" lon="6.38347">
        <ele>108.3</ele>
        <time>2012-04-01T13:58:45Z</time>
      </trkpt>
      <trkpt lat="43.19433" lon="6.38348">
        <ele>107.1</ele>
        <time>2012-04-01T13:58:54Z</time>
      </trkpt>
      <trkpt lat="43.19441" lon="6.38342">
        <ele>107.3</ele>
        <time>2012-04-01T13:59:24Z</time>
      </trkpt>
      <trkpt lat="43.19442" lon="6.38341">
        <ele>107.4</ele>
        <time>2012-04-01T13:59:25Z</time>
      </trkpt>
      <trkpt lat="43.19442" lon="6.3832">
        <ele>106.3</ele>
        <time>2012-04-01T13:59:43Z</time>
      </trkpt>
      <trkpt lat="43.19441" lon="6.38308">
        <ele>106.9</ele>
        <time>2012-04-01T13:59:52Z</time>
      </trkpt>
      <trkpt lat="43.19441" lon="6.38296">
        <ele>105.9</ele>
        <time>2012-04-01T14:00:03Z</time>
      </trkpt>
      <trkpt lat="43.19441" lon="6.38284">
        <ele>106.1</ele>
        <time>2012-04-01T14:00:17Z</time>
      </trkpt>
      <trkpt lat="43.1944" lon="6.38272">
        <ele>105.1</ele>
        <time>2012-04-01T14:00:28Z</time>
      </trkpt>
      <trkpt lat="43.19439" lon="6.38272">
        <ele>105</ele>
        <time>2012-04-01T14:00:29Z</time>
      </trkpt>
      <trkpt lat="43.19437" lon="6.38248">
        <ele>103.4</ele>
        <time>2012-04-01T14:00:54Z</time>
      </trkpt>
      <trkpt lat="43.19438" lon="6.38236">
        <ele>102.9</ele>
        <time>2012-04-01T14:01:06Z</time>
      </trkpt>
      <trkpt lat="43.19442" lon="6.38227">
        <ele>101.7</ele>
        <time>2012-04-01T14:01:15Z</time>
      </trkpt>
      <trkpt lat="43.19448" lon="6.38218">
        <ele>101.7</ele>
        <time>2012-04-01T14:01:24Z</time>
      </trkpt>
      <trkpt lat="43.19455" lon="6.38212">
        <ele>101.1</ele>
        <time>2012-04-01T14:01:34Z</time>
      </trkpt>
      <trkpt lat="43.19456" lon="6.38211">
        <ele>100.9</ele>
        <time>2012-04-01T14:01:35Z</time>
      </trkpt>
    </trkseg>
  </trk>
</gpx>